<?xml version="1.0" encoding="UTF-8" standalone="no" ?>
<gpx xmlns="http://www.topografix.com/GPX/1/1" xmlns:xsi="http://www.w3.org/2001/XMLSchema-instance" xsi:schemaLocation="http://www.topografix.com/GPX/1/1 http://www.topografix.com/GPX/1/1/gpx.xsd" version="1.1" creator="VisuGPX - https://www.visugpx.com">
  <metadata>
    <name>Montfaucon_BoucleMoine_21.6km</name>
    <desc><![CDATA[gnerando idor:9396038_9396073]]></desc>
  </metadata>
  <trk>
    <name><![CDATA[Montfaucon_MontignéStCrespin_21.6km-9396038]]></name>
    <extensions>
      <line xmlns="http://www.topografix.com/GPX/gpx_style/0/2">
        <color>0000FF</color>
        <width>4</width>
      </line>
    </extensions>
    <trkseg>
      <trkpt lat="47.09873" lon="-1.12748">
        <ele>44</ele>
        <time>2023-11-05T14:13:09Z</time>
      </trkpt>
      <trkpt lat="47.0979" lon="-1.12643">
        <ele>34</ele>
        <time>2023-11-05T14:15:35Z</time>
      </trkpt>
      <trkpt lat="47.09715" lon="-1.12596">
        <ele>35</ele>
        <time>2023-11-05T14:17:24Z</time>
      </trkpt>
      <trkpt lat="47.09655" lon="-1.12565">
        <ele>36</ele>
        <time>2023-11-05T14:18:49Z</time>
      </trkpt>
      <trkpt lat="47.09604" lon="-1.1249">
        <ele>39</ele>
        <time>2023-11-05T14:20:25Z</time>
      </trkpt>
      <trkpt lat="47.09537" lon="-1.12237">
        <ele>49</ele>
        <time>2023-11-05T14:24:32Z</time>
      </trkpt>
      <trkpt lat="47.09423" lon="-1.12404">
        <ele>46</ele>
        <time>2023-11-05T14:28:07Z</time>
      </trkpt>
      <trkpt lat="47.09248" lon="-1.12317">
        <ele>54</ele>
        <time>2023-11-05T14:32:13Z</time>
      </trkpt>
      <trkpt lat="47.08983" lon="-1.12238">
        <ele>68</ele>
        <time>2023-11-05T14:38:14Z</time>
      </trkpt>
      <trkpt lat="47.08771" lon="-1.12262">
        <ele>84</ele>
        <time>2023-11-05T14:42:58Z</time>
      </trkpt>
      <trkpt lat="47.08556" lon="-1.12308">
        <ele>84</ele>
        <time>2023-11-05T14:47:48Z</time>
      </trkpt>
      <trkpt lat="47.08495" lon="-1.12295">
        <ele>86</ele>
        <time>2023-11-05T14:49:10Z</time>
      </trkpt>
      <trkpt lat="47.08427" lon="-1.12085">
        <ele>89</ele>
        <time>2023-11-05T14:52:41Z</time>
      </trkpt>
      <trkpt lat="47.08439" lon="-1.11918">
        <ele>87</ele>
        <time>2023-11-05T14:55:14Z</time>
      </trkpt>
      <trkpt lat="47.08496" lon="-1.11673">
        <ele>92</ele>
        <time>2023-11-05T14:59:09Z</time>
      </trkpt>
      <trkpt lat="47.08646" lon="-1.11789">
        <ele>88</ele>
        <time>2023-11-05T15:02:55Z</time>
      </trkpt>
      <trkpt lat="47.08847" lon="-1.1176">
        <ele>78</ele>
        <time>2023-11-05T15:07:25Z</time>
      </trkpt>
      <trkpt lat="47.08919" lon="-1.11726">
        <ele>75</ele>
        <time>2023-11-05T15:09:06Z</time>
      </trkpt>
      <trkpt lat="47.09016" lon="-1.11555">
        <ele>75</ele>
        <time>2023-11-05T15:12:28Z</time>
      </trkpt>
      <trkpt lat="47.09174" lon="-1.11529">
        <ele>69</ele>
        <time>2023-11-05T15:16:00Z</time>
      </trkpt>
      <trkpt lat="47.09271" lon="-1.11607">
        <ele>66</ele>
        <time>2023-11-05T15:18:28Z</time>
      </trkpt>
      <trkpt lat="47.09287" lon="-1.1167">
        <ele>66</ele>
        <time>2023-11-05T15:19:29Z</time>
      </trkpt>
      <trkpt lat="47.09365" lon="-1.11595">
        <ele>65</ele>
        <time>2023-11-05T15:21:33Z</time>
      </trkpt>
      <trkpt lat="47.09508" lon="-1.11295">
        <ele>64</ele>
        <time>2023-11-05T15:27:06Z</time>
      </trkpt>
      <trkpt lat="47.09568" lon="-1.11099">
        <ele>59</ele>
        <time>2023-11-05T15:30:21Z</time>
      </trkpt>
      <trkpt lat="47.09655" lon="-1.10895">
        <ele>49</ele>
        <time>2023-11-05T15:34:00Z</time>
      </trkpt>
      <trkpt lat="47.09734" lon="-1.10857">
        <ele>39</ele>
        <time>2023-11-05T15:35:51Z</time>
      </trkpt>
      <trkpt lat="47.09745" lon="-1.1079">
        <ele>38</ele>
        <time>2023-11-05T15:36:53Z</time>
      </trkpt>
      <trkpt lat="47.0971" lon="-1.10781">
        <ele>43</ele>
        <time>2023-11-05T15:37:41Z</time>
      </trkpt>
      <trkpt lat="47.09703" lon="-1.1074">
        <ele>46</ele>
        <time>2023-11-05T15:38:19Z</time>
      </trkpt>
      <trkpt lat="47.09718" lon="-1.10678">
        <ele>46</ele>
        <time>2023-11-05T15:39:19Z</time>
      </trkpt>
      <trkpt lat="47.09672" lon="-1.10659">
        <ele>57</ele>
        <time>2023-11-05T15:40:23Z</time>
      </trkpt>
      <trkpt lat="47.09665" lon="-1.10621">
        <ele>57</ele>
        <time>2023-11-05T15:40:59Z</time>
      </trkpt>
      <trkpt lat="47.09552" lon="-1.10626">
        <ele>72</ele>
        <time>2023-11-05T15:43:29Z</time>
      </trkpt>
      <trkpt lat="47.09494" lon="-1.10553">
        <ele>79</ele>
        <time>2023-11-05T15:45:11Z</time>
      </trkpt>
      <trkpt lat="47.09364" lon="-1.10134">
        <ele>78</ele>
        <time>2023-11-05T15:52:10Z</time>
      </trkpt>
      <trkpt lat="47.09327" lon="-1.1002">
        <ele>79</ele>
        <time>2023-11-05T15:54:04Z</time>
      </trkpt>
      <trkpt lat="47.08929" lon="-1.0997">
        <ele>84</ele>
        <time>2023-11-05T16:02:57Z</time>
      </trkpt>
      <trkpt lat="47.08849" lon="-1.10022">
        <ele>85</ele>
        <time>2023-11-05T16:04:54Z</time>
      </trkpt>
      <trkpt lat="47.08813" lon="-1.09867">
        <ele>85</ele>
        <time>2023-11-05T16:07:23Z</time>
      </trkpt>
      <trkpt lat="47.089" lon="-1.09657">
        <ele>84</ele>
        <time>2023-11-05T16:11:06Z</time>
      </trkpt>
      <trkpt lat="47.09136" lon="-1.09463">
        <ele>84</ele>
        <time>2023-11-05T16:17:07Z</time>
      </trkpt>
      <trkpt lat="47.09235" lon="-1.09337">
        <ele>79</ele>
        <time>2023-11-05T16:20:02Z</time>
      </trkpt>
      <trkpt lat="47.09277" lon="-1.09035">
        <ele>74</ele>
        <time>2023-11-05T16:24:42Z</time>
      </trkpt>
      <trkpt lat="47.09339" lon="-1.08694">
        <ele>64</ele>
        <time>2023-11-05T16:30:03Z</time>
      </trkpt>
      <trkpt lat="47.09336" lon="-1.08395">
        <ele>54</ele>
        <time>2023-11-05T16:34:34Z</time>
      </trkpt>
      <trkpt lat="47.09392" lon="-1.08379">
        <ele>52</ele>
        <time>2023-11-05T16:35:51Z</time>
      </trkpt>
      <trkpt lat="47.09516" lon="-1.08426">
        <ele>51</ele>
        <time>2023-11-05T16:38:41Z</time>
      </trkpt>
      <trkpt lat="47.09607" lon="-1.08501">
        <ele>50</ele>
        <time>2023-11-05T16:41:01Z</time>
      </trkpt>
      <trkpt lat="47.09707" lon="-1.08572">
        <ele>49</ele>
        <time>2023-11-05T16:43:29Z</time>
      </trkpt>
      <trkpt lat="47.09727" lon="-1.08659">
        <ele>47</ele>
        <time>2023-11-05T16:44:52Z</time>
      </trkpt>
      <trkpt lat="47.0977" lon="-1.087">
        <ele>45</ele>
        <time>2023-11-05T16:46:01Z</time>
      </trkpt>
      <trkpt lat="47.09803" lon="-1.08647">
        <ele>42</ele>
        <time>2023-11-05T16:47:06Z</time>
      </trkpt>
      <trkpt lat="47.09838" lon="-1.08468">
        <ele>46</ele>
        <time>2023-11-05T16:49:55Z</time>
      </trkpt>
      <trkpt lat="47.09917" lon="-1.08441">
        <ele>43</ele>
        <time>2023-11-05T16:51:43Z</time>
      </trkpt>
      <trkpt lat="47.09966" lon="-1.08427">
        <ele>57</ele>
        <time>2023-11-05T16:52:50Z</time>
      </trkpt>
      <trkpt lat="47.1" lon="-1.08261">
        <ele>64</ele>
        <time>2023-11-05T16:55:27Z</time>
      </trkpt>
      <trkpt lat="47.10058" lon="-1.08185">
        <ele>70</ele>
        <time>2023-11-05T16:57:11Z</time>
      </trkpt>
      <trkpt lat="47.1017" lon="-1.08227">
        <ele>85</ele>
        <time>2023-11-05T16:59:45Z</time>
      </trkpt>
      <trkpt lat="47.10171" lon="-1.08397">
        <ele>88</ele>
        <time>2023-11-05T17:02:20Z</time>
      </trkpt>
      <trkpt lat="47.10119" lon="-1.08781">
        <ele>86</ele>
        <time>2023-11-05T17:08:16Z</time>
      </trkpt>
      <trkpt lat="47.10241" lon="-1.09073">
        <ele>84</ele>
        <time>2023-11-05T17:13:27Z</time>
      </trkpt>
      <trkpt lat="47.10299" lon="-1.09118">
        <ele>84</ele>
        <time>2023-11-05T17:14:54Z</time>
      </trkpt>
      <trkpt lat="47.10417" lon="-1.09275">
        <ele>84</ele>
        <time>2023-11-05T17:18:27Z</time>
      </trkpt>
      <trkpt lat="47.10381" lon="-1.0928">
        <ele>83</ele>
        <time>2023-11-05T17:19:15Z</time>
      </trkpt>
      <trkpt lat="47.10325" lon="-1.09405">
        <ele>80</ele>
        <time>2023-11-05T17:21:31Z</time>
      </trkpt>
      <trkpt lat="47.10218" lon="-1.09395">
        <ele>79</ele>
        <time>2023-11-05T17:23:54Z</time>
      </trkpt>
      <trkpt lat="47.10198" lon="-1.09599">
        <ele>74</ele>
        <time>2023-11-05T17:27:01Z</time>
      </trkpt>
      <trkpt lat="47.10101" lon="-1.09711">
        <ele>73</ele>
        <time>2023-11-05T17:29:46Z</time>
      </trkpt>
      <trkpt lat="47.09948" lon="-1.09996">
        <ele>61</ele>
        <time>2023-11-05T17:35:16Z</time>
      </trkpt>
      <trkpt lat="47.09883" lon="-1.10042">
        <ele>55</ele>
        <time>2023-11-05T17:36:52Z</time>
      </trkpt>
      <trkpt lat="47.09889" lon="-1.10109">
        <ele>53</ele>
        <time>2023-11-05T17:37:53Z</time>
      </trkpt>
      <trkpt lat="47.09842" lon="-1.10114">
        <ele>49</ele>
        <time>2023-11-05T17:38:56Z</time>
      </trkpt>
      <trkpt lat="47.09807" lon="-1.10139">
        <ele>45</ele>
        <time>2023-11-05T17:39:48Z</time>
      </trkpt>
      <trkpt lat="47.09784" lon="-1.10124">
        <ele>43</ele>
        <time>2023-11-05T17:40:22Z</time>
      </trkpt>
      <trkpt lat="47.09817" lon="-1.10395">
        <ele>49</ele>
        <time>2023-11-05T17:44:32Z</time>
      </trkpt>
      <trkpt lat="47.09907" lon="-1.10577">
        <ele>55</ele>
        <time>2023-11-05T17:47:56Z</time>
      </trkpt>
      <trkpt lat="47.09966" lon="-1.10544">
        <ele>64</ele>
        <time>2023-11-05T17:49:20Z</time>
      </trkpt>
      <trkpt lat="47.1002" lon="-1.10534">
        <ele>68</ele>
        <time>2023-11-05T17:50:33Z</time>
      </trkpt>
      <trkpt lat="47.10097" lon="-1.10466">
        <ele>73</ele>
        <time>2023-11-05T17:52:33Z</time>
      </trkpt>
      <trkpt lat="47.1019" lon="-1.10349">
        <ele>72</ele>
        <time>2023-11-05T17:55:16Z</time>
      </trkpt>
      <trkpt lat="47.10265" lon="-1.10397">
        <ele>71</ele>
        <time>2023-11-05T17:57:05Z</time>
      </trkpt>
      <trkpt lat="47.10366" lon="-1.10404">
        <ele>71</ele>
        <time>2023-11-05T17:59:20Z</time>
      </trkpt>
      <trkpt lat="47.10453" lon="-1.10263">
        <ele>74</ele>
        <time>2023-11-05T18:02:13Z</time>
      </trkpt>
      <trkpt lat="47.1049" lon="-1.10325">
        <ele>76</ele>
        <time>2023-11-05T18:03:28Z</time>
      </trkpt>
      <trkpt lat="47.10513" lon="-1.10439">
        <ele>78</ele>
        <time>2023-11-05T18:05:16Z</time>
      </trkpt>
      <trkpt lat="47.10583" lon="-1.1053">
        <ele>80</ele>
        <time>2023-11-05T18:07:21Z</time>
      </trkpt>
      <trkpt lat="47.10668" lon="-1.10585">
        <ele>76</ele>
        <time>2023-11-05T18:09:25Z</time>
      </trkpt>
      <trkpt lat="47.10752" lon="-1.10671">
        <ele>74</ele>
        <time>2023-11-05T18:11:41Z</time>
      </trkpt>
      <trkpt lat="47.10629" lon="-1.10773">
        <ele>67</ele>
        <time>2023-11-05T18:14:50Z</time>
      </trkpt>
      <trkpt lat="47.10577" lon="-1.10859">
        <ele>66</ele>
        <time>2023-11-05T18:16:34Z</time>
      </trkpt>
      <trkpt lat="47.10568" lon="-1.10958">
        <ele>67</ele>
        <time>2023-11-05T18:18:05Z</time>
      </trkpt>
      <trkpt lat="47.10539" lon="-1.11032">
        <ele>67</ele>
        <time>2023-11-05T18:19:23Z</time>
      </trkpt>
      <trkpt lat="47.10542" lon="-1.11127">
        <ele>70</ele>
        <time>2023-11-05T18:20:49Z</time>
      </trkpt>
      <trkpt lat="47.10485" lon="-1.11303">
        <ele>67</ele>
        <time>2023-11-05T18:23:46Z</time>
      </trkpt>
      <trkpt lat="47.10339" lon="-1.11698">
        <ele>62</ele>
        <time>2023-11-05T18:30:34Z</time>
      </trkpt>
      <trkpt lat="47.10172" lon="-1.1192">
        <ele>62</ele>
        <time>2023-11-05T18:35:35Z</time>
      </trkpt>
      <trkpt lat="47.1018" lon="-1.12111">
        <ele>65</ele>
        <time>2023-11-05T18:38:29Z</time>
      </trkpt>
      <trkpt lat="47.1028" lon="-1.12075">
        <ele>69</ele>
        <time>2023-11-05T18:40:46Z</time>
      </trkpt>
      <trkpt lat="47.1037" lon="-1.12226">
        <ele>71</ele>
        <time>2023-11-05T18:43:48Z</time>
      </trkpt>
      <trkpt lat="47.10478" lon="-1.12165">
        <ele>76</ele>
        <time>2023-11-05T18:46:23Z</time>
      </trkpt>
      <trkpt lat="47.10587" lon="-1.12024">
        <ele>82</ele>
        <time>2023-11-05T18:49:37Z</time>
      </trkpt>
      <trkpt lat="47.10636" lon="-1.11916">
        <ele>84</ele>
        <time>2023-11-05T18:51:35Z</time>
      </trkpt>
      <trkpt lat="47.10646" lon="-1.11847">
        <ele>84</ele>
        <time>2023-11-05T18:52:39Z</time>
      </trkpt>
      <trkpt lat="47.10756" lon="-1.11678">
        <ele>84</ele>
        <time>2023-11-05T18:56:11Z</time>
      </trkpt>
      <trkpt lat="47.1087" lon="-1.1174">
        <ele>82</ele>
        <time>2023-11-05T18:58:53Z</time>
      </trkpt>
      <trkpt lat="47.10914" lon="-1.11778">
        <ele>79</ele>
        <time>2023-11-05T19:00:01Z</time>
      </trkpt>
      <trkpt lat="47.10952" lon="-1.11859">
        <ele>77</ele>
        <time>2023-11-05T19:01:31Z</time>
      </trkpt>
      <trkpt lat="47.1085" lon="-1.12008">
        <ele>77</ele>
        <time>2023-11-05T19:04:43Z</time>
      </trkpt>
      <trkpt lat="47.10791" lon="-1.12058">
        <ele>77</ele>
        <time>2023-11-05T19:06:14Z</time>
      </trkpt>
      <trkpt lat="47.10673" lon="-1.12248">
        <ele>79</ele>
        <time>2023-11-05T19:10:07Z</time>
      </trkpt>
      <trkpt lat="47.10727" lon="-1.12259">
        <ele>75</ele>
        <time>2023-11-05T19:11:20Z</time>
      </trkpt>
      <trkpt lat="47.10794" lon="-1.12228">
        <ele>72</ele>
        <time>2023-11-05T19:12:54Z</time>
      </trkpt>
      <trkpt lat="47.10963" lon="-1.123">
        <ele>60</ele>
        <time>2023-11-05T19:16:48Z</time>
      </trkpt>
      <trkpt lat="47.11038" lon="-1.12367">
        <ele>62</ele>
        <time>2023-11-05T19:18:46Z</time>
      </trkpt>
      <trkpt lat="47.11033" lon="-1.12441">
        <ele>61</ele>
        <time>2023-11-05T19:19:53Z</time>
      </trkpt>
      <trkpt lat="47.10894" lon="-1.12417">
        <ele>62</ele>
        <time>2023-11-05T19:23:00Z</time>
      </trkpt>
      <trkpt lat="47.10749" lon="-1.12448">
        <ele>58</ele>
        <time>2023-11-05T19:26:15Z</time>
      </trkpt>
      <trkpt lat="47.10719" lon="-1.12552">
        <ele>61</ele>
        <time>2023-11-05T19:27:58Z</time>
      </trkpt>
      <trkpt lat="47.1065" lon="-1.1264">
        <ele>56</ele>
        <time>2023-11-05T19:30:00Z</time>
      </trkpt>
      <trkpt lat="47.10589" lon="-1.1278">
        <ele>55</ele>
        <time>2023-11-05T19:32:31Z</time>
      </trkpt>
      <trkpt lat="47.10689" lon="-1.1289">
        <ele>66</ele>
        <time>2023-11-05T19:35:18Z</time>
      </trkpt>
      <trkpt lat="47.10975" lon="-1.13203">
        <ele>81</ele>
        <time>2023-11-05T19:43:14Z</time>
      </trkpt>
      <trkpt lat="47.11064" lon="-1.13422">
        <ele>81</ele>
        <time>2023-11-05T19:47:05Z</time>
      </trkpt>
      <trkpt lat="47.1114" lon="-1.13468">
        <ele>83</ele>
        <time>2023-11-05T19:48:55Z</time>
      </trkpt>
      <trkpt lat="47.11096" lon="-1.13666">
        <ele>80</ele>
        <time>2023-11-05T19:52:04Z</time>
      </trkpt>
      <trkpt lat="47.11082" lon="-1.13896">
        <ele>80</ele>
        <time>2023-11-05T19:55:34Z</time>
      </trkpt>
      <trkpt lat="47.11292" lon="-1.1394">
        <ele>83</ele>
        <time>2023-11-05T20:00:17Z</time>
      </trkpt>
      <trkpt lat="47.11642" lon="-1.14357">
        <ele>91</ele>
        <time>2023-11-05T20:10:18Z</time>
      </trkpt>
      <trkpt lat="47.11554" lon="-1.15117">
        <ele>91</ele>
        <time>2023-11-05T20:21:58Z</time>
      </trkpt>
      <trkpt lat="47.11368" lon="-1.14992">
        <ele>93</ele>
        <time>2023-11-05T20:26:31Z</time>
      </trkpt>
      <trkpt lat="47.11295" lon="-1.14977">
        <ele>92</ele>
        <time>2023-11-05T20:28:10Z</time>
      </trkpt>
      <trkpt lat="47.11066" lon="-1.15096">
        <ele>90</ele>
        <time>2023-11-05T20:33:34Z</time>
      </trkpt>
      <trkpt lat="47.10977" lon="-1.14923">
        <ele>89</ele>
        <time>2023-11-05T20:36:51Z</time>
      </trkpt>
      <trkpt lat="47.10656" lon="-1.14717">
        <ele>88</ele>
        <time>2023-11-05T20:44:38Z</time>
      </trkpt>
      <trkpt lat="47.10513" lon="-1.14275">
        <ele>83</ele>
        <time>2023-11-05T20:52:03Z</time>
      </trkpt>
      <trkpt lat="47.10159" lon="-1.14082">
        <ele>79</ele>
        <time>2023-11-05T21:00:26Z</time>
      </trkpt>
      <trkpt lat="47.09987" lon="-1.1367">
        <ele>67</ele>
        <time>2023-11-05T21:07:45Z</time>
      </trkpt>
      <trkpt lat="47.09839" lon="-1.13394">
        <ele>65</ele>
        <time>2023-11-05T21:13:05Z</time>
      </trkpt>
      <trkpt lat="47.09788" lon="-1.13174">
        <ele>61</ele>
        <time>2023-11-05T21:16:36Z</time>
      </trkpt>
      <trkpt lat="47.09853" lon="-1.13057">
        <ele>49</ele>
        <time>2023-11-05T21:18:53Z</time>
      </trkpt>
      <trkpt lat="47.09849" lon="-1.12975">
        <ele>44</ele>
        <time>2023-11-05T21:20:08Z</time>
      </trkpt>
      <trkpt lat="47.09903" lon="-1.12934">
        <ele>42</ele>
        <time>2023-11-05T21:21:29Z</time>
      </trkpt>
      <trkpt lat="47.09829" lon="-1.1281">
        <ele>41</ele>
        <time>2023-11-05T21:23:59Z</time>
      </trkpt>
      <trkpt lat="47.09875" lon="-1.12794">
        <ele>44</ele>
        <time>2023-11-05T21:25:02Z</time>
      </trkpt>
      <trkpt lat="47.09891" lon="-1.12765">
        <ele>46</ele>
        <time>2023-11-05T21:25:36Z</time>
      </trkpt>
    </trkseg>
  </trk>
  <trk>
    <name><![CDATA[Montfaucon_BoucleMoine_21.6km-9396073]]></name>
    <extensions>
      <line xmlns="http://www.topografix.com/GPX/gpx_style/0/2">
        <color>00FF00</color>
        <width>4</width>
      </line>
    </extensions>
    <trkseg>
      <trkpt lat="47.09839" lon="-1.12791">
        <ele>41</ele>
        <time>2023-11-05T14:12:55Z</time>
      </trkpt>
      <trkpt lat="47.09837" lon="-1.128">
        <ele>41</ele>
        <time>2023-11-05T14:13:04Z</time>
      </trkpt>
      <trkpt lat="47.09829" lon="-1.12804">
        <ele>40</ele>
        <time>2023-11-05T14:13:15Z</time>
      </trkpt>
      <trkpt lat="47.09795" lon="-1.12793">
        <ele>39</ele>
        <time>2023-11-05T14:14:01Z</time>
      </trkpt>
      <trkpt lat="47.09784" lon="-1.12784">
        <ele>38</ele>
        <time>2023-11-05T14:14:18Z</time>
      </trkpt>
      <trkpt lat="47.09783" lon="-1.12764">
        <ele>38</ele>
        <time>2023-11-05T14:14:36Z</time>
      </trkpt>
      <trkpt lat="47.09801" lon="-1.12753">
        <ele>38</ele>
        <time>2023-11-05T14:15:02Z</time>
      </trkpt>
      <trkpt lat="47.09815" lon="-1.12749">
        <ele>39</ele>
        <time>2023-11-05T14:15:21Z</time>
      </trkpt>
      <trkpt lat="47.09821" lon="-1.1274">
        <ele>39</ele>
        <time>2023-11-05T14:15:33Z</time>
      </trkpt>
      <trkpt lat="47.09838" lon="-1.12734">
        <ele>40</ele>
        <time>2023-11-05T14:15:56Z</time>
      </trkpt>
      <trkpt lat="47.09839" lon="-1.12728">
        <ele>39</ele>
        <time>2023-11-05T14:16:02Z</time>
      </trkpt>
      <trkpt lat="47.0982" lon="-1.12694">
        <ele>36</ele>
        <time>2023-11-05T14:16:42Z</time>
      </trkpt>
      <trkpt lat="47.09771" lon="-1.12625">
        <ele>34</ele>
        <time>2023-11-05T14:18:12Z</time>
      </trkpt>
      <trkpt lat="47.09751" lon="-1.12607">
        <ele>34</ele>
        <time>2023-11-05T14:18:44Z</time>
      </trkpt>
      <trkpt lat="47.09742" lon="-1.12605">
        <ele>34</ele>
        <time>2023-11-05T14:18:56Z</time>
      </trkpt>
      <trkpt lat="47.09733" lon="-1.12606">
        <ele>34</ele>
        <time>2023-11-05T14:19:08Z</time>
      </trkpt>
      <trkpt lat="47.09715" lon="-1.12623">
        <ele>35</ele>
        <time>2023-11-05T14:19:36Z</time>
      </trkpt>
      <trkpt lat="47.09675" lon="-1.1259">
        <ele>36</ele>
        <time>2023-11-05T14:20:38Z</time>
      </trkpt>
      <trkpt lat="47.09637" lon="-1.12548">
        <ele>37</ele>
        <time>2023-11-05T14:21:41Z</time>
      </trkpt>
      <trkpt lat="47.09615" lon="-1.1252">
        <ele>38</ele>
        <time>2023-11-05T14:22:20Z</time>
      </trkpt>
      <trkpt lat="47.09594" lon="-1.12482">
        <ele>40</ele>
        <time>2023-11-05T14:23:04Z</time>
      </trkpt>
      <trkpt lat="47.09582" lon="-1.12446">
        <ele>42</ele>
        <time>2023-11-05T14:23:41Z</time>
      </trkpt>
      <trkpt lat="47.09546" lon="-1.12297">
        <ele>47</ele>
        <time>2023-11-05T14:26:04Z</time>
      </trkpt>
      <trkpt lat="47.09532" lon="-1.12255">
        <ele>49</ele>
        <time>2023-11-05T14:26:47Z</time>
      </trkpt>
      <trkpt lat="47.09514" lon="-1.12261">
        <ele>50</ele>
        <time>2023-11-05T14:27:12Z</time>
      </trkpt>
      <trkpt lat="47.09497" lon="-1.12283">
        <ele>51</ele>
        <time>2023-11-05T14:27:42Z</time>
      </trkpt>
      <trkpt lat="47.09474" lon="-1.12305">
        <ele>50</ele>
        <time>2023-11-05T14:28:18Z</time>
      </trkpt>
      <trkpt lat="47.09464" lon="-1.12319">
        <ele>49</ele>
        <time>2023-11-05T14:28:37Z</time>
      </trkpt>
      <trkpt lat="47.09425" lon="-1.1239">
        <ele>46</ele>
        <time>2023-11-05T14:30:00Z</time>
      </trkpt>
      <trkpt lat="47.09386" lon="-1.12398">
        <ele>47</ele>
        <time>2023-11-05T14:30:52Z</time>
      </trkpt>
      <trkpt lat="47.09213" lon="-1.1231">
        <ele>54</ele>
        <time>2023-11-05T14:34:57Z</time>
      </trkpt>
      <trkpt lat="47.09059" lon="-1.12279">
        <ele>62</ele>
        <time>2023-11-05T14:38:24Z</time>
      </trkpt>
      <trkpt lat="47.0898" lon="-1.12242">
        <ele>68</ele>
        <time>2023-11-05T14:40:15Z</time>
      </trkpt>
      <trkpt lat="47.08891" lon="-1.12239">
        <ele>77</ele>
        <time>2023-11-05T14:42:13Z</time>
      </trkpt>
      <trkpt lat="47.08489" lon="-1.12302">
        <ele>86</ele>
        <time>2023-11-05T14:51:13Z</time>
      </trkpt>
      <trkpt lat="47.08467" lon="-1.12239">
        <ele>87</ele>
        <time>2023-11-05T14:52:17Z</time>
      </trkpt>
      <trkpt lat="47.08441" lon="-1.12138">
        <ele>88</ele>
        <time>2023-11-05T14:53:55Z</time>
      </trkpt>
      <trkpt lat="47.08426" lon="-1.12053">
        <ele>89</ele>
        <time>2023-11-05T14:55:15Z</time>
      </trkpt>
      <trkpt lat="47.08426" lon="-1.12016">
        <ele>89</ele>
        <time>2023-11-05T14:55:49Z</time>
      </trkpt>
      <trkpt lat="47.08432" lon="-1.11985">
        <ele>88</ele>
        <time>2023-11-05T14:56:18Z</time>
      </trkpt>
      <trkpt lat="47.08433" lon="-1.11947">
        <ele>88</ele>
        <time>2023-11-05T14:56:53Z</time>
      </trkpt>
      <trkpt lat="47.08452" lon="-1.11845">
        <ele>86</ele>
        <time>2023-11-05T14:58:29Z</time>
      </trkpt>
      <trkpt lat="47.08475" lon="-1.11777">
        <ele>87</ele>
        <time>2023-11-05T14:59:38Z</time>
      </trkpt>
      <trkpt lat="47.08484" lon="-1.11739">
        <ele>88</ele>
        <time>2023-11-05T15:00:14Z</time>
      </trkpt>
      <trkpt lat="47.08492" lon="-1.11685">
        <ele>91</ele>
        <time>2023-11-05T15:01:05Z</time>
      </trkpt>
      <trkpt lat="47.08505" lon="-1.11658">
        <ele>93</ele>
        <time>2023-11-05T15:01:35Z</time>
      </trkpt>
      <trkpt lat="47.08507" lon="-1.11661">
        <ele>93</ele>
        <time>2023-11-05T15:01:38Z</time>
      </trkpt>
      <trkpt lat="47.0851" lon="-1.11655">
        <ele>93</ele>
        <time>2023-11-05T15:01:45Z</time>
      </trkpt>
      <trkpt lat="47.08598" lon="-1.11752">
        <ele>90</ele>
        <time>2023-11-05T15:04:12Z</time>
      </trkpt>
      <trkpt lat="47.08617" lon="-1.11766">
        <ele>89</ele>
        <time>2023-11-05T15:04:40Z</time>
      </trkpt>
      <trkpt lat="47.08666" lon="-1.11782">
        <ele>88</ele>
        <time>2023-11-05T15:05:47Z</time>
      </trkpt>
      <trkpt lat="47.08718" lon="-1.1178">
        <ele>85</ele>
        <time>2023-11-05T15:06:57Z</time>
      </trkpt>
      <trkpt lat="47.08795" lon="-1.11772">
        <ele>81</ele>
        <time>2023-11-05T15:08:40Z</time>
      </trkpt>
      <trkpt lat="47.08868" lon="-1.11757">
        <ele>77</ele>
        <time>2023-11-05T15:10:18Z</time>
      </trkpt>
      <trkpt lat="47.08898" lon="-1.1174">
        <ele>76</ele>
        <time>2023-11-05T15:11:01Z</time>
      </trkpt>
      <trkpt lat="47.0892" lon="-1.11722">
        <ele>75</ele>
        <time>2023-11-05T15:11:35Z</time>
      </trkpt>
      <trkpt lat="47.08989" lon="-1.116">
        <ele>76</ele>
        <time>2023-11-05T15:13:59Z</time>
      </trkpt>
      <trkpt lat="47.09009" lon="-1.11571">
        <ele>75</ele>
        <time>2023-11-05T15:14:36Z</time>
      </trkpt>
      <trkpt lat="47.09033" lon="-1.11544">
        <ele>74</ele>
        <time>2023-11-05T15:15:17Z</time>
      </trkpt>
      <trkpt lat="47.09064" lon="-1.1153">
        <ele>73</ele>
        <time>2023-11-05T15:16:00Z</time>
      </trkpt>
      <trkpt lat="47.09072" lon="-1.1153">
        <ele>73</ele>
        <time>2023-11-05T15:16:11Z</time>
      </trkpt>
      <trkpt lat="47.09096" lon="-1.11533">
        <ele>72</ele>
        <time>2023-11-05T15:16:43Z</time>
      </trkpt>
      <trkpt lat="47.09124" lon="-1.11531">
        <ele>71</ele>
        <time>2023-11-05T15:17:20Z</time>
      </trkpt>
      <trkpt lat="47.09154" lon="-1.11532">
        <ele>70</ele>
        <time>2023-11-05T15:18:00Z</time>
      </trkpt>
      <trkpt lat="47.09183" lon="-1.11536">
        <ele>69</ele>
        <time>2023-11-05T15:18:39Z</time>
      </trkpt>
      <trkpt lat="47.09225" lon="-1.11583">
        <ele>67</ele>
        <time>2023-11-05T15:19:49Z</time>
      </trkpt>
      <trkpt lat="47.09254" lon="-1.116">
        <ele>66</ele>
        <time>2023-11-05T15:20:31Z</time>
      </trkpt>
      <trkpt lat="47.09268" lon="-1.11616">
        <ele>66</ele>
        <time>2023-11-05T15:20:55Z</time>
      </trkpt>
      <trkpt lat="47.09281" lon="-1.11642">
        <ele>67</ele>
        <time>2023-11-05T15:21:24Z</time>
      </trkpt>
      <trkpt lat="47.09282" lon="-1.11651">
        <ele>67</ele>
        <time>2023-11-05T15:21:32Z</time>
      </trkpt>
      <trkpt lat="47.093" lon="-1.11662">
        <ele>66</ele>
        <time>2023-11-05T15:21:58Z</time>
      </trkpt>
      <trkpt lat="47.09337" lon="-1.1162">
        <ele>66</ele>
        <time>2023-11-05T15:23:01Z</time>
      </trkpt>
      <trkpt lat="47.09342" lon="-1.1162">
        <ele>66</ele>
        <time>2023-11-05T15:23:07Z</time>
      </trkpt>
      <trkpt lat="47.09363" lon="-1.11603">
        <ele>65</ele>
        <time>2023-11-05T15:23:39Z</time>
      </trkpt>
      <trkpt lat="47.09393" lon="-1.11528">
        <ele>66</ele>
        <time>2023-11-05T15:24:59Z</time>
      </trkpt>
      <trkpt lat="47.09438" lon="-1.11426">
        <ele>66</ele>
        <time>2023-11-05T15:26:49Z</time>
      </trkpt>
      <trkpt lat="47.09482" lon="-1.11336">
        <ele>65</ele>
        <time>2023-11-05T15:28:30Z</time>
      </trkpt>
      <trkpt lat="47.09519" lon="-1.11276">
        <ele>64</ele>
        <time>2023-11-05T15:29:43Z</time>
      </trkpt>
      <trkpt lat="47.09536" lon="-1.1124">
        <ele>63</ele>
        <time>2023-11-05T15:30:23Z</time>
      </trkpt>
      <trkpt lat="47.09549" lon="-1.11206">
        <ele>62</ele>
        <time>2023-11-05T15:30:58Z</time>
      </trkpt>
      <trkpt lat="47.09556" lon="-1.11172">
        <ele>61</ele>
        <time>2023-11-05T15:31:31Z</time>
      </trkpt>
      <trkpt lat="47.09558" lon="-1.11146">
        <ele>61</ele>
        <time>2023-11-05T15:31:54Z</time>
      </trkpt>
      <trkpt lat="47.09565" lon="-1.11115">
        <ele>60</ele>
        <time>2023-11-05T15:32:24Z</time>
      </trkpt>
      <trkpt lat="47.09579" lon="-1.11075">
        <ele>58</ele>
        <time>2023-11-05T15:33:05Z</time>
      </trkpt>
      <trkpt lat="47.09596" lon="-1.11049">
        <ele>57</ele>
        <time>2023-11-05T15:33:38Z</time>
      </trkpt>
      <trkpt lat="47.09624" lon="-1.10959">
        <ele>54</ele>
        <time>2023-11-05T15:35:08Z</time>
      </trkpt>
      <trkpt lat="47.09642" lon="-1.10922">
        <ele>51</ele>
        <time>2023-11-05T15:35:49Z</time>
      </trkpt>
      <trkpt lat="47.09666" lon="-1.10895">
        <ele>48</ele>
        <time>2023-11-05T15:36:29Z</time>
      </trkpt>
      <trkpt lat="47.0969" lon="-1.10879">
        <ele>45</ele>
        <time>2023-11-05T15:37:04Z</time>
      </trkpt>
      <trkpt lat="47.09718" lon="-1.10869">
        <ele>41</ele>
        <time>2023-11-05T15:37:43Z</time>
      </trkpt>
      <trkpt lat="47.09724" lon="-1.10865">
        <ele>41</ele>
        <time>2023-11-05T15:37:52Z</time>
      </trkpt>
      <trkpt lat="47.09731" lon="-1.10855">
        <ele>39</ele>
        <time>2023-11-05T15:38:05Z</time>
      </trkpt>
      <trkpt lat="47.09733" lon="-1.10843">
        <ele>38</ele>
        <time>2023-11-05T15:38:16Z</time>
      </trkpt>
      <trkpt lat="47.0973" lon="-1.10836">
        <ele>39</ele>
        <time>2023-11-05T15:38:23Z</time>
      </trkpt>
      <trkpt lat="47.09706" lon="-1.10828">
        <ele>42</ele>
        <time>2023-11-05T15:38:56Z</time>
      </trkpt>
      <trkpt lat="47.09697" lon="-1.10837">
        <ele>43</ele>
        <time>2023-11-05T15:39:11Z</time>
      </trkpt>
      <trkpt lat="47.09696" lon="-1.10835">
        <ele>43</ele>
        <time>2023-11-05T15:39:13Z</time>
      </trkpt>
      <trkpt lat="47.0969" lon="-1.108">
        <ele>45</ele>
        <time>2023-11-05T15:39:46Z</time>
      </trkpt>
      <trkpt lat="47.09696" lon="-1.10788">
        <ele>45</ele>
        <time>2023-11-05T15:39:59Z</time>
      </trkpt>
      <trkpt lat="47.09682" lon="-1.10742">
        <ele>50</ele>
        <time>2023-11-05T15:40:45Z</time>
      </trkpt>
      <trkpt lat="47.09677" lon="-1.10695">
        <ele>54</ele>
        <time>2023-11-05T15:41:28Z</time>
      </trkpt>
      <trkpt lat="47.09639" lon="-1.10661">
        <ele>61</ele>
        <time>2023-11-05T15:42:28Z</time>
      </trkpt>
      <trkpt lat="47.09619" lon="-1.10657">
        <ele>64</ele>
        <time>2023-11-05T15:42:55Z</time>
      </trkpt>
      <trkpt lat="47.09553" lon="-1.10635">
        <ele>72</ele>
        <time>2023-11-05T15:44:25Z</time>
      </trkpt>
      <trkpt lat="47.09541" lon="-1.10625">
        <ele>73</ele>
        <time>2023-11-05T15:44:43Z</time>
      </trkpt>
      <trkpt lat="47.09524" lon="-1.10592">
        <ele>75</ele>
        <time>2023-11-05T15:45:21Z</time>
      </trkpt>
      <trkpt lat="47.09511" lon="-1.10555">
        <ele>78</ele>
        <time>2023-11-05T15:45:59Z</time>
      </trkpt>
      <trkpt lat="47.09493" lon="-1.10525">
        <ele>79</ele>
        <time>2023-11-05T15:46:35Z</time>
      </trkpt>
      <trkpt lat="47.0946" lon="-1.10429">
        <ele>79</ele>
        <time>2023-11-05T15:48:13Z</time>
      </trkpt>
      <trkpt lat="47.09421" lon="-1.10326">
        <ele>78</ele>
        <time>2023-11-05T15:50:00Z</time>
      </trkpt>
      <trkpt lat="47.09385" lon="-1.10201">
        <ele>77</ele>
        <time>2023-11-05T15:52:03Z</time>
      </trkpt>
      <trkpt lat="47.09364" lon="-1.10119">
        <ele>78</ele>
        <time>2023-11-05T15:53:23Z</time>
      </trkpt>
      <trkpt lat="47.09349" lon="-1.1008">
        <ele>78</ele>
        <time>2023-11-05T15:54:04Z</time>
      </trkpt>
      <trkpt lat="47.09322" lon="-1.10036">
        <ele>80</ele>
        <time>2023-11-05T15:54:57Z</time>
      </trkpt>
      <trkpt lat="47.09296" lon="-1.10013">
        <ele>81</ele>
        <time>2023-11-05T15:55:38Z</time>
      </trkpt>
      <trkpt lat="47.0927" lon="-1.10002">
        <ele>83</ele>
        <time>2023-11-05T15:56:14Z</time>
      </trkpt>
      <trkpt lat="47.09242" lon="-1.09999">
        <ele>84</ele>
        <time>2023-11-05T15:56:51Z</time>
      </trkpt>
      <trkpt lat="47.0921" lon="-1.1">
        <ele>84</ele>
        <time>2023-11-05T15:57:34Z</time>
      </trkpt>
      <trkpt lat="47.09151" lon="-1.09997">
        <ele>84</ele>
        <time>2023-11-05T15:58:53Z</time>
      </trkpt>
      <trkpt lat="47.09148" lon="-1.09998">
        <ele>84</ele>
        <time>2023-11-05T15:58:57Z</time>
      </trkpt>
      <trkpt lat="47.09148" lon="-1.10001">
        <ele>84</ele>
        <time>2023-11-05T15:59:00Z</time>
      </trkpt>
      <trkpt lat="47.09142" lon="-1.09998">
        <ele>84</ele>
        <time>2023-11-05T15:59:08Z</time>
      </trkpt>
      <trkpt lat="47.09041" lon="-1.09985">
        <ele>84</ele>
        <time>2023-11-05T16:01:23Z</time>
      </trkpt>
      <trkpt lat="47.08953" lon="-1.09969">
        <ele>84</ele>
        <time>2023-11-05T16:03:22Z</time>
      </trkpt>
      <trkpt lat="47.0892" lon="-1.09972">
        <ele>84</ele>
        <time>2023-11-05T16:04:06Z</time>
      </trkpt>
      <trkpt lat="47.08888" lon="-1.09984">
        <ele>85</ele>
        <time>2023-11-05T16:04:50Z</time>
      </trkpt>
      <trkpt lat="47.08857" lon="-1.10012">
        <ele>85</ele>
        <time>2023-11-05T16:05:39Z</time>
      </trkpt>
      <trkpt lat="47.08842" lon="-1.10009">
        <ele>85</ele>
        <time>2023-11-05T16:05:59Z</time>
      </trkpt>
      <trkpt lat="47.08813" lon="-1.09884">
        <ele>86</ele>
        <time>2023-11-05T16:07:59Z</time>
      </trkpt>
      <trkpt lat="47.08844" lon="-1.09779">
        <ele>84</ele>
        <time>2023-11-05T16:09:43Z</time>
      </trkpt>
      <trkpt lat="47.08879" lon="-1.09695">
        <ele>84</ele>
        <time>2023-11-05T16:11:12Z</time>
      </trkpt>
      <trkpt lat="47.089" lon="-1.09666">
        <ele>84</ele>
        <time>2023-11-05T16:11:51Z</time>
      </trkpt>
      <trkpt lat="47.08925" lon="-1.09642">
        <ele>85</ele>
        <time>2023-11-05T16:12:31Z</time>
      </trkpt>
      <trkpt lat="47.0906" lon="-1.09536">
        <ele>86</ele>
        <time>2023-11-05T16:15:55Z</time>
      </trkpt>
      <trkpt lat="47.09156" lon="-1.09446">
        <ele>82</ele>
        <time>2023-11-05T16:18:27Z</time>
      </trkpt>
      <trkpt lat="47.0918" lon="-1.09417">
        <ele>81</ele>
        <time>2023-11-05T16:19:08Z</time>
      </trkpt>
      <trkpt lat="47.09228" lon="-1.09348">
        <ele>79</ele>
        <time>2023-11-05T16:20:38Z</time>
      </trkpt>
      <trkpt lat="47.09242" lon="-1.09319">
        <ele>79</ele>
        <time>2023-11-05T16:21:10Z</time>
      </trkpt>
      <trkpt lat="47.09253" lon="-1.09245">
        <ele>78</ele>
        <time>2023-11-05T16:22:19Z</time>
      </trkpt>
      <trkpt lat="47.09249" lon="-1.09246">
        <ele>78</ele>
        <time>2023-11-05T16:22:24Z</time>
      </trkpt>
      <trkpt lat="47.09265" lon="-1.09134">
        <ele>75</ele>
        <time>2023-11-05T16:24:08Z</time>
      </trkpt>
      <trkpt lat="47.0929" lon="-1.09003">
        <ele>73</ele>
        <time>2023-11-05T16:26:12Z</time>
      </trkpt>
      <trkpt lat="47.09306" lon="-1.08855">
        <ele>71</ele>
        <time>2023-11-05T16:28:28Z</time>
      </trkpt>
      <trkpt lat="47.0933" lon="-1.08718">
        <ele>66</ele>
        <time>2023-11-05T16:30:37Z</time>
      </trkpt>
      <trkpt lat="47.09331" lon="-1.08674">
        <ele>63</ele>
        <time>2023-11-05T16:31:17Z</time>
      </trkpt>
      <trkpt lat="47.09325" lon="-1.08565">
        <ele>61</ele>
        <time>2023-11-05T16:32:56Z</time>
      </trkpt>
      <trkpt lat="47.09317" lon="-1.08501">
        <ele>59</ele>
        <time>2023-11-05T16:33:55Z</time>
      </trkpt>
      <trkpt lat="47.09324" lon="-1.08445">
        <ele>56</ele>
        <time>2023-11-05T16:34:47Z</time>
      </trkpt>
      <trkpt lat="47.0933" lon="-1.08419">
        <ele>54</ele>
        <time>2023-11-05T16:35:12Z</time>
      </trkpt>
      <trkpt lat="47.09331" lon="-1.08369">
        <ele>54</ele>
        <time>2023-11-05T16:35:57Z</time>
      </trkpt>
      <trkpt lat="47.0936" lon="-1.08364">
        <ele>53</ele>
        <time>2023-11-05T16:36:36Z</time>
      </trkpt>
      <trkpt lat="47.09386" lon="-1.08368">
        <ele>52</ele>
        <time>2023-11-05T16:37:11Z</time>
      </trkpt>
      <trkpt lat="47.09468" lon="-1.084">
        <ele>51</ele>
        <time>2023-11-05T16:39:04Z</time>
      </trkpt>
      <trkpt lat="47.09476" lon="-1.08407">
        <ele>51</ele>
        <time>2023-11-05T16:39:17Z</time>
      </trkpt>
      <trkpt lat="47.09496" lon="-1.08418">
        <ele>50</ele>
        <time>2023-11-05T16:39:45Z</time>
      </trkpt>
      <trkpt lat="47.09514" lon="-1.08419">
        <ele>50</ele>
        <time>2023-11-05T16:40:09Z</time>
      </trkpt>
      <trkpt lat="47.09535" lon="-1.08431">
        <ele>51</ele>
        <time>2023-11-05T16:40:39Z</time>
      </trkpt>
      <trkpt lat="47.09548" lon="-1.08452">
        <ele>52</ele>
        <time>2023-11-05T16:41:05Z</time>
      </trkpt>
      <trkpt lat="47.09563" lon="-1.08464">
        <ele>52</ele>
        <time>2023-11-05T16:41:28Z</time>
      </trkpt>
      <trkpt lat="47.09573" lon="-1.08465">
        <ele>52</ele>
        <time>2023-11-05T16:41:41Z</time>
      </trkpt>
      <trkpt lat="47.09604" lon="-1.08497">
        <ele>50</ele>
        <time>2023-11-05T16:42:32Z</time>
      </trkpt>
      <trkpt lat="47.09622" lon="-1.085">
        <ele>50</ele>
        <time>2023-11-05T16:42:56Z</time>
      </trkpt>
      <trkpt lat="47.09639" lon="-1.08523">
        <ele>49</ele>
        <time>2023-11-05T16:43:27Z</time>
      </trkpt>
      <trkpt lat="47.09646" lon="-1.08528">
        <ele>49</ele>
        <time>2023-11-05T16:43:37Z</time>
      </trkpt>
      <trkpt lat="47.09666" lon="-1.08534">
        <ele>48</ele>
        <time>2023-11-05T16:44:05Z</time>
      </trkpt>
      <trkpt lat="47.0971" lon="-1.08571">
        <ele>49</ele>
        <time>2023-11-05T16:45:12Z</time>
      </trkpt>
      <trkpt lat="47.09748" lon="-1.08626">
        <ele>47</ele>
        <time>2023-11-05T16:46:23Z</time>
      </trkpt>
      <trkpt lat="47.09779" lon="-1.08656">
        <ele>43</ele>
        <time>2023-11-05T16:47:13Z</time>
      </trkpt>
      <trkpt lat="47.09789" lon="-1.08661">
        <ele>42</ele>
        <time>2023-11-05T16:47:27Z</time>
      </trkpt>
      <trkpt lat="47.09802" lon="-1.08659">
        <ele>42</ele>
        <time>2023-11-05T16:47:44Z</time>
      </trkpt>
      <trkpt lat="47.09804" lon="-1.08653">
        <ele>42</ele>
        <time>2023-11-05T16:47:51Z</time>
      </trkpt>
      <trkpt lat="47.09806" lon="-1.08625">
        <ele>42</ele>
        <time>2023-11-05T16:48:16Z</time>
      </trkpt>
      <trkpt lat="47.09826" lon="-1.08545">
        <ele>45</ele>
        <time>2023-11-05T16:49:34Z</time>
      </trkpt>
      <trkpt lat="47.09828" lon="-1.08518">
        <ele>46</ele>
        <time>2023-11-05T16:49:58Z</time>
      </trkpt>
      <trkpt lat="47.09834" lon="-1.08492">
        <ele>46</ele>
        <time>2023-11-05T16:50:23Z</time>
      </trkpt>
      <trkpt lat="47.09841" lon="-1.08485">
        <ele>46</ele>
        <time>2023-11-05T16:50:34Z</time>
      </trkpt>
      <trkpt lat="47.09867" lon="-1.0848">
        <ele>45</ele>
        <time>2023-11-05T16:51:09Z</time>
      </trkpt>
      <trkpt lat="47.09883" lon="-1.08453">
        <ele>44</ele>
        <time>2023-11-05T16:51:42Z</time>
      </trkpt>
      <trkpt lat="47.09913" lon="-1.08429">
        <ele>43</ele>
        <time>2023-11-05T16:52:28Z</time>
      </trkpt>
      <trkpt lat="47.09921" lon="-1.08362">
        <ele>45</ele>
        <time>2023-11-05T16:53:29Z</time>
      </trkpt>
      <trkpt lat="47.09935" lon="-1.08289">
        <ele>48</ele>
        <time>2023-11-05T16:54:38Z</time>
      </trkpt>
      <trkpt lat="47.09936" lon="-1.08253">
        <ele>47</ele>
        <time>2023-11-05T16:55:11Z</time>
      </trkpt>
      <trkpt lat="47.09944" lon="-1.08213">
        <ele>48</ele>
        <time>2023-11-05T16:55:49Z</time>
      </trkpt>
      <trkpt lat="47.09948" lon="-1.08177">
        <ele>48</ele>
        <time>2023-11-05T16:56:22Z</time>
      </trkpt>
      <trkpt lat="47.09969" lon="-1.08062">
        <ele>47</ele>
        <time>2023-11-05T16:58:10Z</time>
      </trkpt>
      <trkpt lat="47.09998" lon="-1.07875">
        <ele>45</ele>
        <time>2023-11-05T17:01:04Z</time>
      </trkpt>
      <trkpt lat="47.10008" lon="-1.07843">
        <ele>46</ele>
        <time>2023-11-05T17:01:36Z</time>
      </trkpt>
      <trkpt lat="47.10005" lon="-1.07843">
        <ele>46</ele>
        <time>2023-11-05T17:01:40Z</time>
      </trkpt>
      <trkpt lat="47.10007" lon="-1.07839">
        <ele>46</ele>
        <time>2023-11-05T17:01:45Z</time>
      </trkpt>
      <trkpt lat="47.10006" lon="-1.07833">
        <ele>46</ele>
        <time>2023-11-05T17:01:50Z</time>
      </trkpt>
      <trkpt lat="47.10025" lon="-1.07763">
        <ele>50</ele>
        <time>2023-11-05T17:02:59Z</time>
      </trkpt>
      <trkpt lat="47.10035" lon="-1.07675">
        <ele>50</ele>
        <time>2023-11-05T17:04:20Z</time>
      </trkpt>
      <trkpt lat="47.10035" lon="-1.07642">
        <ele>50</ele>
        <time>2023-11-05T17:04:50Z</time>
      </trkpt>
      <trkpt lat="47.1003" lon="-1.0761">
        <ele>49</ele>
        <time>2023-11-05T17:05:20Z</time>
      </trkpt>
      <trkpt lat="47.10027" lon="-1.07539">
        <ele>48</ele>
        <time>2023-11-05T17:06:24Z</time>
      </trkpt>
      <trkpt lat="47.1002" lon="-1.07498">
        <ele>46</ele>
        <time>2023-11-05T17:07:03Z</time>
      </trkpt>
      <trkpt lat="47.10022" lon="-1.07454">
        <ele>47</ele>
        <time>2023-11-05T17:07:43Z</time>
      </trkpt>
      <trkpt lat="47.10015" lon="-1.07421">
        <ele>46</ele>
        <time>2023-11-05T17:08:14Z</time>
      </trkpt>
      <trkpt lat="47.10014" lon="-1.07398">
        <ele>46</ele>
        <time>2023-11-05T17:08:35Z</time>
      </trkpt>
      <trkpt lat="47.10018" lon="-1.07379">
        <ele>46</ele>
        <time>2023-11-05T17:08:53Z</time>
      </trkpt>
      <trkpt lat="47.1002" lon="-1.07343">
        <ele>45</ele>
        <time>2023-11-05T17:09:26Z</time>
      </trkpt>
      <trkpt lat="47.10028" lon="-1.07331">
        <ele>46</ele>
        <time>2023-11-05T17:09:41Z</time>
      </trkpt>
      <trkpt lat="47.10031" lon="-1.07335">
        <ele>46</ele>
        <time>2023-11-05T17:09:47Z</time>
      </trkpt>
      <trkpt lat="47.10038" lon="-1.0736">
        <ele>47</ele>
        <time>2023-11-05T17:10:11Z</time>
      </trkpt>
      <trkpt lat="47.10049" lon="-1.07376">
        <ele>48</ele>
        <time>2023-11-05T17:10:32Z</time>
      </trkpt>
      <trkpt lat="47.1005" lon="-1.07384">
        <ele>49</ele>
        <time>2023-11-05T17:10:39Z</time>
      </trkpt>
      <trkpt lat="47.10078" lon="-1.07412">
        <ele>52</ele>
        <time>2023-11-05T17:11:24Z</time>
      </trkpt>
      <trkpt lat="47.10094" lon="-1.07437">
        <ele>55</ele>
        <time>2023-11-05T17:11:56Z</time>
      </trkpt>
      <trkpt lat="47.10108" lon="-1.07467">
        <ele>57</ele>
        <time>2023-11-05T17:12:29Z</time>
      </trkpt>
      <trkpt lat="47.10115" lon="-1.07505">
        <ele>60</ele>
        <time>2023-11-05T17:13:04Z</time>
      </trkpt>
      <trkpt lat="47.1012" lon="-1.07553">
        <ele>64</ele>
        <time>2023-11-05T17:13:49Z</time>
      </trkpt>
      <trkpt lat="47.1012" lon="-1.07582">
        <ele>66</ele>
        <time>2023-11-05T17:14:15Z</time>
      </trkpt>
      <trkpt lat="47.10129" lon="-1.07596">
        <ele>68</ele>
        <time>2023-11-05T17:14:32Z</time>
      </trkpt>
      <trkpt lat="47.10149" lon="-1.0764">
        <ele>74</ele>
        <time>2023-11-05T17:15:20Z</time>
      </trkpt>
      <trkpt lat="47.10169" lon="-1.07676">
        <ele>79</ele>
        <time>2023-11-05T17:16:03Z</time>
      </trkpt>
      <trkpt lat="47.10165" lon="-1.07712">
        <ele>79</ele>
        <time>2023-11-05T17:16:36Z</time>
      </trkpt>
      <trkpt lat="47.10157" lon="-1.07728">
        <ele>78</ele>
        <time>2023-11-05T17:16:54Z</time>
      </trkpt>
      <trkpt lat="47.10148" lon="-1.0776">
        <ele>76</ele>
        <time>2023-11-05T17:17:25Z</time>
      </trkpt>
      <trkpt lat="47.10132" lon="-1.078">
        <ele>74</ele>
        <time>2023-11-05T17:18:07Z</time>
      </trkpt>
      <trkpt lat="47.10126" lon="-1.0784">
        <ele>74</ele>
        <time>2023-11-05T17:18:45Z</time>
      </trkpt>
      <trkpt lat="47.10122" lon="-1.07874">
        <ele>74</ele>
        <time>2023-11-05T17:19:16Z</time>
      </trkpt>
      <trkpt lat="47.10126" lon="-1.079">
        <ele>75</ele>
        <time>2023-11-05T17:19:40Z</time>
      </trkpt>
      <trkpt lat="47.10124" lon="-1.07939">
        <ele>76</ele>
        <time>2023-11-05T17:20:16Z</time>
      </trkpt>
      <trkpt lat="47.10131" lon="-1.07967">
        <ele>77</ele>
        <time>2023-11-05T17:20:43Z</time>
      </trkpt>
      <trkpt lat="47.10129" lon="-1.07979">
        <ele>77</ele>
        <time>2023-11-05T17:20:54Z</time>
      </trkpt>
      <trkpt lat="47.10104" lon="-1.08015">
        <ele>75</ele>
        <time>2023-11-05T17:21:41Z</time>
      </trkpt>
      <trkpt lat="47.10089" lon="-1.08029">
        <ele>74</ele>
        <time>2023-11-05T17:22:04Z</time>
      </trkpt>
      <trkpt lat="47.10078" lon="-1.08051">
        <ele>72</ele>
        <time>2023-11-05T17:22:29Z</time>
      </trkpt>
      <trkpt lat="47.10071" lon="-1.08075">
        <ele>70</ele>
        <time>2023-11-05T17:22:53Z</time>
      </trkpt>
      <trkpt lat="47.10066" lon="-1.08111">
        <ele>69</ele>
        <time>2023-11-05T17:23:26Z</time>
      </trkpt>
      <trkpt lat="47.10077" lon="-1.08151">
        <ele>73</ele>
        <time>2023-11-05T17:24:06Z</time>
      </trkpt>
      <trkpt lat="47.10079" lon="-1.08184">
        <ele>74</ele>
        <time>2023-11-05T17:24:36Z</time>
      </trkpt>
      <trkpt lat="47.10076" lon="-1.08205">
        <ele>75</ele>
        <time>2023-11-05T17:24:55Z</time>
      </trkpt>
      <trkpt lat="47.10085" lon="-1.08211">
        <ele>77</ele>
        <time>2023-11-05T17:25:08Z</time>
      </trkpt>
      <trkpt lat="47.10142" lon="-1.08222">
        <ele>82</ele>
        <time>2023-11-05T17:26:25Z</time>
      </trkpt>
      <trkpt lat="47.10168" lon="-1.08232">
        <ele>85</ele>
        <time>2023-11-05T17:27:01Z</time>
      </trkpt>
      <trkpt lat="47.10173" lon="-1.08273">
        <ele>85</ele>
        <time>2023-11-05T17:27:39Z</time>
      </trkpt>
      <trkpt lat="47.10173" lon="-1.08277">
        <ele>85</ele>
        <time>2023-11-05T17:27:42Z</time>
      </trkpt>
      <trkpt lat="47.10169" lon="-1.08281">
        <ele>85</ele>
        <time>2023-11-05T17:27:49Z</time>
      </trkpt>
      <trkpt lat="47.10172" lon="-1.08278">
        <ele>85</ele>
        <time>2023-11-05T17:27:54Z</time>
      </trkpt>
      <trkpt lat="47.1017" lon="-1.08274">
        <ele>85</ele>
        <time>2023-11-05T17:27:58Z</time>
      </trkpt>
      <trkpt lat="47.10172" lon="-1.08275">
        <ele>85</ele>
        <time>2023-11-05T17:28:01Z</time>
      </trkpt>
      <trkpt lat="47.10169" lon="-1.08276">
        <ele>85</ele>
        <time>2023-11-05T17:28:05Z</time>
      </trkpt>
      <trkpt lat="47.10171" lon="-1.08277">
        <ele>85</ele>
        <time>2023-11-05T17:28:08Z</time>
      </trkpt>
      <trkpt lat="47.10171" lon="-1.08295">
        <ele>86</ele>
        <time>2023-11-05T17:28:24Z</time>
      </trkpt>
      <trkpt lat="47.10167" lon="-1.08352">
        <ele>86</ele>
        <time>2023-11-05T17:29:16Z</time>
      </trkpt>
      <trkpt lat="47.10157" lon="-1.08404">
        <ele>87</ele>
        <time>2023-11-05T17:30:05Z</time>
      </trkpt>
      <trkpt lat="47.10128" lon="-1.08693">
        <ele>86</ele>
        <time>2023-11-05T17:34:31Z</time>
      </trkpt>
      <trkpt lat="47.10135" lon="-1.08802">
        <ele>86</ele>
        <time>2023-11-05T17:36:10Z</time>
      </trkpt>
      <trkpt lat="47.10145" lon="-1.08845">
        <ele>86</ele>
        <time>2023-11-05T17:36:52Z</time>
      </trkpt>
      <trkpt lat="47.10167" lon="-1.08914">
        <ele>85</ele>
        <time>2023-11-05T17:38:01Z</time>
      </trkpt>
      <trkpt lat="47.102" lon="-1.08985">
        <ele>85</ele>
        <time>2023-11-05T17:39:19Z</time>
      </trkpt>
      <trkpt lat="47.10204" lon="-1.09001">
        <ele>85</ele>
        <time>2023-11-05T17:39:34Z</time>
      </trkpt>
      <trkpt lat="47.10218" lon="-1.09036">
        <ele>85</ele>
        <time>2023-11-05T17:40:11Z</time>
      </trkpt>
      <trkpt lat="47.10256" lon="-1.09081">
        <ele>84</ele>
        <time>2023-11-05T17:41:16Z</time>
      </trkpt>
      <trkpt lat="47.10276" lon="-1.09093">
        <ele>85</ele>
        <time>2023-11-05T17:41:45Z</time>
      </trkpt>
      <trkpt lat="47.10301" lon="-1.09122">
        <ele>84</ele>
        <time>2023-11-05T17:42:28Z</time>
      </trkpt>
      <trkpt lat="47.10321" lon="-1.09152">
        <ele>84</ele>
        <time>2023-11-05T17:43:06Z</time>
      </trkpt>
      <trkpt lat="47.10375" lon="-1.09217">
        <ele>83</ele>
        <time>2023-11-05T17:44:39Z</time>
      </trkpt>
      <trkpt lat="47.10389" lon="-1.09249">
        <ele>83</ele>
        <time>2023-11-05T17:45:13Z</time>
      </trkpt>
      <trkpt lat="47.10403" lon="-1.09274">
        <ele>83</ele>
        <time>2023-11-05T17:45:43Z</time>
      </trkpt>
      <trkpt lat="47.10418" lon="-1.09289">
        <ele>84</ele>
        <time>2023-11-05T17:46:07Z</time>
      </trkpt>
      <trkpt lat="47.10418" lon="-1.09286">
        <ele>84</ele>
        <time>2023-11-05T17:46:10Z</time>
      </trkpt>
      <trkpt lat="47.10416" lon="-1.09291">
        <ele>83</ele>
        <time>2023-11-05T17:46:15Z</time>
      </trkpt>
      <trkpt lat="47.10423" lon="-1.09382">
        <ele>82</ele>
        <time>2023-11-05T17:47:38Z</time>
      </trkpt>
      <trkpt lat="47.10451" lon="-1.09529">
        <ele>80</ele>
        <time>2023-11-05T17:49:57Z</time>
      </trkpt>
      <trkpt lat="47.10459" lon="-1.09545">
        <ele>80</ele>
        <time>2023-11-05T17:50:15Z</time>
      </trkpt>
      <trkpt lat="47.10468" lon="-1.09613">
        <ele>79</ele>
        <time>2023-11-05T17:51:18Z</time>
      </trkpt>
      <trkpt lat="47.10476" lon="-1.09631">
        <ele>78</ele>
        <time>2023-11-05T17:51:37Z</time>
      </trkpt>
      <trkpt lat="47.10493" lon="-1.09634">
        <ele>78</ele>
        <time>2023-11-05T17:52:00Z</time>
      </trkpt>
      <trkpt lat="47.1051" lon="-1.09651">
        <ele>78</ele>
        <time>2023-11-05T17:52:28Z</time>
      </trkpt>
      <trkpt lat="47.10537" lon="-1.09706">
        <ele>78</ele>
        <time>2023-11-05T17:53:29Z</time>
      </trkpt>
      <trkpt lat="47.10574" lon="-1.09767">
        <ele>78</ele>
        <time>2023-11-05T17:54:44Z</time>
      </trkpt>
      <trkpt lat="47.10572" lon="-1.09768">
        <ele>78</ele>
        <time>2023-11-05T17:54:46Z</time>
      </trkpt>
      <trkpt lat="47.10569" lon="-1.09764">
        <ele>78</ele>
        <time>2023-11-05T17:54:52Z</time>
      </trkpt>
      <trkpt lat="47.10505" lon="-1.09646">
        <ele>78</ele>
        <time>2023-11-05T17:57:09Z</time>
      </trkpt>
      <trkpt lat="47.10482" lon="-1.09632">
        <ele>78</ele>
        <time>2023-11-05T17:57:42Z</time>
      </trkpt>
      <trkpt lat="47.10473" lon="-1.09634">
        <ele>78</ele>
        <time>2023-11-05T17:57:54Z</time>
      </trkpt>
      <trkpt lat="47.10468" lon="-1.09644">
        <ele>77</ele>
        <time>2023-11-05T17:58:05Z</time>
      </trkpt>
      <trkpt lat="47.10465" lon="-1.09681">
        <ele>76</ele>
        <time>2023-11-05T17:58:39Z</time>
      </trkpt>
      <trkpt lat="47.10466" lon="-1.09711">
        <ele>76</ele>
        <time>2023-11-05T17:59:07Z</time>
      </trkpt>
      <trkpt lat="47.10462" lon="-1.09752">
        <ele>75</ele>
        <time>2023-11-05T17:59:44Z</time>
      </trkpt>
      <trkpt lat="47.10457" lon="-1.10134">
        <ele>76</ele>
        <time>2023-11-05T18:05:31Z</time>
      </trkpt>
      <trkpt lat="47.10443" lon="-1.10257">
        <ele>74</ele>
        <time>2023-11-05T18:07:25Z</time>
      </trkpt>
      <trkpt lat="47.10437" lon="-1.10269">
        <ele>74</ele>
        <time>2023-11-05T18:07:38Z</time>
      </trkpt>
      <trkpt lat="47.10441" lon="-1.10261">
        <ele>74</ele>
        <time>2023-11-05T18:07:47Z</time>
      </trkpt>
      <trkpt lat="47.10455" lon="-1.10258">
        <ele>74</ele>
        <time>2023-11-05T18:08:06Z</time>
      </trkpt>
      <trkpt lat="47.10476" lon="-1.10282">
        <ele>75</ele>
        <time>2023-11-05T18:08:41Z</time>
      </trkpt>
      <trkpt lat="47.10484" lon="-1.10296">
        <ele>76</ele>
        <time>2023-11-05T18:08:58Z</time>
      </trkpt>
      <trkpt lat="47.10494" lon="-1.10325">
        <ele>77</ele>
        <time>2023-11-05T18:09:28Z</time>
      </trkpt>
      <trkpt lat="47.10506" lon="-1.10385">
        <ele>78</ele>
        <time>2023-11-05T18:10:24Z</time>
      </trkpt>
      <trkpt lat="47.10524" lon="-1.10394">
        <ele>79</ele>
        <time>2023-11-05T18:10:50Z</time>
      </trkpt>
      <trkpt lat="47.10542" lon="-1.10396">
        <ele>80</ele>
        <time>2023-11-05T18:11:14Z</time>
      </trkpt>
      <trkpt lat="47.10587" lon="-1.10409">
        <ele>82</ele>
        <time>2023-11-05T18:12:15Z</time>
      </trkpt>
      <trkpt lat="47.10593" lon="-1.10416">
        <ele>82</ele>
        <time>2023-11-05T18:12:25Z</time>
      </trkpt>
      <trkpt lat="47.10624" lon="-1.10467">
        <ele>81</ele>
        <time>2023-11-05T18:13:27Z</time>
      </trkpt>
      <trkpt lat="47.10676" lon="-1.10565">
        <ele>77</ele>
        <time>2023-11-05T18:15:20Z</time>
      </trkpt>
      <trkpt lat="47.10725" lon="-1.10632">
        <ele>75</ele>
        <time>2023-11-05T18:16:50Z</time>
      </trkpt>
      <trkpt lat="47.10762" lon="-1.10667">
        <ele>74</ele>
        <time>2023-11-05T18:17:48Z</time>
      </trkpt>
      <trkpt lat="47.10959" lon="-1.1063">
        <ele>74</ele>
        <time>2023-11-05T18:22:13Z</time>
      </trkpt>
      <trkpt lat="47.11077" lon="-1.10739">
        <ele>77</ele>
        <time>2023-11-05T18:25:19Z</time>
      </trkpt>
      <trkpt lat="47.10784" lon="-1.10994">
        <ele>74</ele>
        <time>2023-11-05T18:32:54Z</time>
      </trkpt>
      <trkpt lat="47.10691" lon="-1.11179">
        <ele>79</ele>
        <time>2023-11-05T18:36:23Z</time>
      </trkpt>
      <trkpt lat="47.1072" lon="-1.11398">
        <ele>86</ele>
        <time>2023-11-05T18:39:45Z</time>
      </trkpt>
      <trkpt lat="47.1068" lon="-1.1145">
        <ele>85</ele>
        <time>2023-11-05T18:40:57Z</time>
      </trkpt>
      <trkpt lat="47.10682" lon="-1.11544">
        <ele>85</ele>
        <time>2023-11-05T18:42:22Z</time>
      </trkpt>
      <trkpt lat="47.10764" lon="-1.11664">
        <ele>84</ele>
        <time>2023-11-05T18:44:56Z</time>
      </trkpt>
      <trkpt lat="47.10948" lon="-1.11834">
        <ele>78</ele>
        <time>2023-11-05T18:49:46Z</time>
      </trkpt>
      <trkpt lat="47.1095" lon="-1.11851">
        <ele>77</ele>
        <time>2023-11-05T18:50:02Z</time>
      </trkpt>
      <trkpt lat="47.10943" lon="-1.11882">
        <ele>76</ele>
        <time>2023-11-05T18:50:32Z</time>
      </trkpt>
      <trkpt lat="47.10922" lon="-1.11915">
        <ele>76</ele>
        <time>2023-11-05T18:51:13Z</time>
      </trkpt>
      <trkpt lat="47.10861" lon="-1.11998">
        <ele>76</ele>
        <time>2023-11-05T18:53:04Z</time>
      </trkpt>
      <trkpt lat="47.10814" lon="-1.12027">
        <ele>78</ele>
        <time>2023-11-05T18:54:12Z</time>
      </trkpt>
      <trkpt lat="47.10799" lon="-1.12044">
        <ele>78</ele>
        <time>2023-11-05T18:54:37Z</time>
      </trkpt>
      <trkpt lat="47.10778" lon="-1.12092">
        <ele>77</ele>
        <time>2023-11-05T18:55:29Z</time>
      </trkpt>
      <trkpt lat="47.10739" lon="-1.12149">
        <ele>77</ele>
        <time>2023-11-05T18:56:42Z</time>
      </trkpt>
      <trkpt lat="47.1071" lon="-1.12204">
        <ele>78</ele>
        <time>2023-11-05T18:57:46Z</time>
      </trkpt>
      <trkpt lat="47.10711" lon="-1.1223">
        <ele>77</ele>
        <time>2023-11-05T18:58:09Z</time>
      </trkpt>
      <trkpt lat="47.10717" lon="-1.12237">
        <ele>76</ele>
        <time>2023-11-05T18:58:19Z</time>
      </trkpt>
      <trkpt lat="47.10743" lon="-1.1223">
        <ele>75</ele>
        <time>2023-11-05T18:58:55Z</time>
      </trkpt>
      <trkpt lat="47.10758" lon="-1.12256">
        <ele>73</ele>
        <time>2023-11-05T18:59:26Z</time>
      </trkpt>
      <trkpt lat="47.1077" lon="-1.12297">
        <ele>69</ele>
        <time>2023-11-05T19:00:06Z</time>
      </trkpt>
      <trkpt lat="47.10781" lon="-1.12292">
        <ele>69</ele>
        <time>2023-11-05T19:00:22Z</time>
      </trkpt>
      <trkpt lat="47.10841" lon="-1.12279">
        <ele>66</ele>
        <time>2023-11-05T19:01:42Z</time>
      </trkpt>
      <trkpt lat="47.10869" lon="-1.12279">
        <ele>64</ele>
        <time>2023-11-05T19:02:20Z</time>
      </trkpt>
      <trkpt lat="47.10935" lon="-1.12293">
        <ele>60</ele>
        <time>2023-11-05T19:03:49Z</time>
      </trkpt>
      <trkpt lat="47.10956" lon="-1.12295">
        <ele>60</ele>
        <time>2023-11-05T19:04:17Z</time>
      </trkpt>
      <trkpt lat="47.10991" lon="-1.12316">
        <ele>60</ele>
        <time>2023-11-05T19:05:07Z</time>
      </trkpt>
      <trkpt lat="47.11018" lon="-1.12324">
        <ele>62</ele>
        <time>2023-11-05T19:05:44Z</time>
      </trkpt>
      <trkpt lat="47.11034" lon="-1.1234">
        <ele>63</ele>
        <time>2023-11-05T19:06:10Z</time>
      </trkpt>
      <trkpt lat="47.11057" lon="-1.12373">
        <ele>62</ele>
        <time>2023-11-05T19:06:53Z</time>
      </trkpt>
      <trkpt lat="47.11057" lon="-1.12405">
        <ele>60</ele>
        <time>2023-11-05T19:07:22Z</time>
      </trkpt>
      <trkpt lat="47.11049" lon="-1.12432">
        <ele>60</ele>
        <time>2023-11-05T19:07:49Z</time>
      </trkpt>
      <trkpt lat="47.11038" lon="-1.12434">
        <ele>60</ele>
        <time>2023-11-05T19:08:03Z</time>
      </trkpt>
      <trkpt lat="47.11011" lon="-1.12417">
        <ele>59</ele>
        <time>2023-11-05T19:08:43Z</time>
      </trkpt>
      <trkpt lat="47.10997" lon="-1.12411">
        <ele>59</ele>
        <time>2023-11-05T19:09:02Z</time>
      </trkpt>
      <trkpt lat="47.11002" lon="-1.12416">
        <ele>59</ele>
        <time>2023-11-05T19:09:10Z</time>
      </trkpt>
      <trkpt lat="47.11002" lon="-1.12413">
        <ele>59</ele>
        <time>2023-11-05T19:09:13Z</time>
      </trkpt>
      <trkpt lat="47.10995" lon="-1.12414">
        <ele>59</ele>
        <time>2023-11-05T19:09:22Z</time>
      </trkpt>
      <trkpt lat="47.11" lon="-1.1241">
        <ele>59</ele>
        <time>2023-11-05T19:09:30Z</time>
      </trkpt>
      <trkpt lat="47.10998" lon="-1.12412">
        <ele>59</ele>
        <time>2023-11-05T19:09:33Z</time>
      </trkpt>
      <trkpt lat="47.10997" lon="-1.12408">
        <ele>59</ele>
        <time>2023-11-05T19:09:37Z</time>
      </trkpt>
      <trkpt lat="47.11004" lon="-1.12414">
        <ele>59</ele>
        <time>2023-11-05T19:09:48Z</time>
      </trkpt>
      <trkpt lat="47.11" lon="-1.12409">
        <ele>59</ele>
        <time>2023-11-05T19:09:55Z</time>
      </trkpt>
      <trkpt lat="47.11002" lon="-1.12406">
        <ele>59</ele>
        <time>2023-11-05T19:09:59Z</time>
      </trkpt>
      <trkpt lat="47.11002" lon="-1.1241">
        <ele>59</ele>
        <time>2023-11-05T19:10:02Z</time>
      </trkpt>
      <trkpt lat="47.10999" lon="-1.12408">
        <ele>59</ele>
        <time>2023-11-05T19:10:07Z</time>
      </trkpt>
      <trkpt lat="47.10997" lon="-1.12414">
        <ele>59</ele>
        <time>2023-11-05T19:10:13Z</time>
      </trkpt>
      <trkpt lat="47.10999" lon="-1.1242">
        <ele>59</ele>
        <time>2023-11-05T19:10:19Z</time>
      </trkpt>
      <trkpt lat="47.10999" lon="-1.1241">
        <ele>59</ele>
        <time>2023-11-05T19:10:28Z</time>
      </trkpt>
      <trkpt lat="47.11" lon="-1.12412">
        <ele>59</ele>
        <time>2023-11-05T19:10:30Z</time>
      </trkpt>
      <trkpt lat="47.11002" lon="-1.1241">
        <ele>59</ele>
        <time>2023-11-05T19:10:33Z</time>
      </trkpt>
      <trkpt lat="47.10998" lon="-1.12407">
        <ele>59</ele>
        <time>2023-11-05T19:10:39Z</time>
      </trkpt>
      <trkpt lat="47.11" lon="-1.12396">
        <ele>59</ele>
        <time>2023-11-05T19:10:50Z</time>
      </trkpt>
      <trkpt lat="47.10998" lon="-1.12402">
        <ele>59</ele>
        <time>2023-11-05T19:10:56Z</time>
      </trkpt>
      <trkpt lat="47.11" lon="-1.1241">
        <ele>59</ele>
        <time>2023-11-05T19:11:03Z</time>
      </trkpt>
      <trkpt lat="47.10993" lon="-1.12412">
        <ele>59</ele>
        <time>2023-11-05T19:11:13Z</time>
      </trkpt>
      <trkpt lat="47.10996" lon="-1.12412">
        <ele>59</ele>
        <time>2023-11-05T19:11:17Z</time>
      </trkpt>
      <trkpt lat="47.10998" lon="-1.12415">
        <ele>59</ele>
        <time>2023-11-05T19:11:21Z</time>
      </trkpt>
      <trkpt lat="47.11001" lon="-1.12414">
        <ele>59</ele>
        <time>2023-11-05T19:11:25Z</time>
      </trkpt>
      <trkpt lat="47.10997" lon="-1.12415">
        <ele>59</ele>
        <time>2023-11-05T19:11:30Z</time>
      </trkpt>
      <trkpt lat="47.10967" lon="-1.12406">
        <ele>60</ele>
        <time>2023-11-05T19:12:11Z</time>
      </trkpt>
      <trkpt lat="47.10958" lon="-1.12397">
        <ele>61</ele>
        <time>2023-11-05T19:12:26Z</time>
      </trkpt>
      <trkpt lat="47.10948" lon="-1.124">
        <ele>61</ele>
        <time>2023-11-05T19:12:39Z</time>
      </trkpt>
      <trkpt lat="47.10886" lon="-1.12406">
        <ele>61</ele>
        <time>2023-11-05T19:14:02Z</time>
      </trkpt>
      <trkpt lat="47.1087" lon="-1.1241">
        <ele>60</ele>
        <time>2023-11-05T19:14:24Z</time>
      </trkpt>
      <trkpt lat="47.10825" lon="-1.12432">
        <ele>59</ele>
        <time>2023-11-05T19:15:27Z</time>
      </trkpt>
      <trkpt lat="47.10787" lon="-1.12438">
        <ele>58</ele>
        <time>2023-11-05T19:16:18Z</time>
      </trkpt>
      <trkpt lat="47.10768" lon="-1.12437">
        <ele>58</ele>
        <time>2023-11-05T19:16:44Z</time>
      </trkpt>
      <trkpt lat="47.10758" lon="-1.1245">
        <ele>58</ele>
        <time>2023-11-05T19:17:01Z</time>
      </trkpt>
      <trkpt lat="47.10731" lon="-1.12514">
        <ele>60</ele>
        <time>2023-11-05T19:18:10Z</time>
      </trkpt>
      <trkpt lat="47.10707" lon="-1.12555">
        <ele>60</ele>
        <time>2023-11-05T19:18:59Z</time>
      </trkpt>
      <trkpt lat="47.10691" lon="-1.12575">
        <ele>58</ele>
        <time>2023-11-05T19:19:27Z</time>
      </trkpt>
      <trkpt lat="47.10683" lon="-1.12601">
        <ele>58</ele>
        <time>2023-11-05T19:19:53Z</time>
      </trkpt>
      <trkpt lat="47.10664" lon="-1.12634">
        <ele>56</ele>
        <time>2023-11-05T19:20:32Z</time>
      </trkpt>
      <trkpt lat="47.10646" lon="-1.12658">
        <ele>56</ele>
        <time>2023-11-05T19:21:05Z</time>
      </trkpt>
      <trkpt lat="47.10631" lon="-1.12687">
        <ele>56</ele>
        <time>2023-11-05T19:21:38Z</time>
      </trkpt>
      <trkpt lat="47.10621" lon="-1.12724">
        <ele>56</ele>
        <time>2023-11-05T19:22:14Z</time>
      </trkpt>
      <trkpt lat="47.10593" lon="-1.128">
        <ele>57</ele>
        <time>2023-11-05T19:23:32Z</time>
      </trkpt>
      <trkpt lat="47.1065" lon="-1.12836">
        <ele>62</ele>
        <time>2023-11-05T19:24:55Z</time>
      </trkpt>
      <trkpt lat="47.10678" lon="-1.12878">
        <ele>65</ele>
        <time>2023-11-05T19:25:48Z</time>
      </trkpt>
      <trkpt lat="47.10717" lon="-1.1292">
        <ele>68</ele>
        <time>2023-11-05T19:26:53Z</time>
      </trkpt>
      <trkpt lat="47.10737" lon="-1.12949">
        <ele>70</ele>
        <time>2023-11-05T19:27:30Z</time>
      </trkpt>
      <trkpt lat="47.10758" lon="-1.12968">
        <ele>72</ele>
        <time>2023-11-05T19:28:03Z</time>
      </trkpt>
      <trkpt lat="47.10776" lon="-1.12989">
        <ele>73</ele>
        <time>2023-11-05T19:28:34Z</time>
      </trkpt>
      <trkpt lat="47.108" lon="-1.1301">
        <ele>75</ele>
        <time>2023-11-05T19:29:11Z</time>
      </trkpt>
      <trkpt lat="47.10817" lon="-1.1303">
        <ele>76</ele>
        <time>2023-11-05T19:29:40Z</time>
      </trkpt>
      <trkpt lat="47.10888" lon="-1.13094">
        <ele>79</ele>
        <time>2023-11-05T19:31:32Z</time>
      </trkpt>
      <trkpt lat="47.10941" lon="-1.13156">
        <ele>80</ele>
        <time>2023-11-05T19:33:02Z</time>
      </trkpt>
      <trkpt lat="47.10962" lon="-1.13187">
        <ele>80</ele>
        <time>2023-11-05T19:33:42Z</time>
      </trkpt>
      <trkpt lat="47.11016" lon="-1.13297">
        <ele>81</ele>
        <time>2023-11-05T19:35:45Z</time>
      </trkpt>
      <trkpt lat="47.11041" lon="-1.13367">
        <ele>81</ele>
        <time>2023-11-05T19:36:57Z</time>
      </trkpt>
      <trkpt lat="47.11054" lon="-1.13396">
        <ele>81</ele>
        <time>2023-11-05T19:37:28Z</time>
      </trkpt>
      <trkpt lat="47.11096" lon="-1.13442">
        <ele>81</ele>
        <time>2023-11-05T19:38:38Z</time>
      </trkpt>
      <trkpt lat="47.11132" lon="-1.1346">
        <ele>82</ele>
        <time>2023-11-05T19:39:29Z</time>
      </trkpt>
      <trkpt lat="47.11168" lon="-1.13469">
        <ele>83</ele>
        <time>2023-11-05T19:40:18Z</time>
      </trkpt>
      <trkpt lat="47.11188" lon="-1.13472">
        <ele>83</ele>
        <time>2023-11-05T19:40:44Z</time>
      </trkpt>
      <trkpt lat="47.11256" lon="-1.13473">
        <ele>83</ele>
        <time>2023-11-05T19:42:15Z</time>
      </trkpt>
      <trkpt lat="47.11294" lon="-1.1348">
        <ele>84</ele>
        <time>2023-11-05T19:43:06Z</time>
      </trkpt>
      <trkpt lat="47.11322" lon="-1.13482">
        <ele>84</ele>
        <time>2023-11-05T19:43:44Z</time>
      </trkpt>
      <trkpt lat="47.11373" lon="-1.13499">
        <ele>84</ele>
        <time>2023-11-05T19:44:53Z</time>
      </trkpt>
      <trkpt lat="47.11398" lon="-1.13504">
        <ele>84</ele>
        <time>2023-11-05T19:45:27Z</time>
      </trkpt>
      <trkpt lat="47.11445" lon="-1.13519">
        <ele>84</ele>
        <time>2023-11-05T19:46:31Z</time>
      </trkpt>
      <trkpt lat="47.1148" lon="-1.13525">
        <ele>84</ele>
        <time>2023-11-05T19:47:18Z</time>
      </trkpt>
      <trkpt lat="47.11509" lon="-1.13533">
        <ele>84</ele>
        <time>2023-11-05T19:47:58Z</time>
      </trkpt>
      <trkpt lat="47.11555" lon="-1.13554">
        <ele>84</ele>
        <time>2023-11-05T19:49:02Z</time>
      </trkpt>
      <trkpt lat="47.11614" lon="-1.13593">
        <ele>84</ele>
        <time>2023-11-05T19:50:28Z</time>
      </trkpt>
      <trkpt lat="47.11639" lon="-1.13615">
        <ele>85</ele>
        <time>2023-11-05T19:51:07Z</time>
      </trkpt>
      <trkpt lat="47.1166" lon="-1.13641">
        <ele>85</ele>
        <time>2023-11-05T19:51:44Z</time>
      </trkpt>
      <trkpt lat="47.11691" lon="-1.13688">
        <ele>85</ele>
        <time>2023-11-05T19:52:43Z</time>
      </trkpt>
      <trkpt lat="47.11696" lon="-1.13702">
        <ele>85</ele>
        <time>2023-11-05T19:52:58Z</time>
      </trkpt>
      <trkpt lat="47.1171" lon="-1.13786">
        <ele>85</ele>
        <time>2023-11-05T19:54:16Z</time>
      </trkpt>
      <trkpt lat="47.11716" lon="-1.13801">
        <ele>85</ele>
        <time>2023-11-05T19:54:32Z</time>
      </trkpt>
      <trkpt lat="47.11708" lon="-1.13847">
        <ele>86</ele>
        <time>2023-11-05T19:55:15Z</time>
      </trkpt>
      <trkpt lat="47.11689" lon="-1.14018">
        <ele>86</ele>
        <time>2023-11-05T19:57:52Z</time>
      </trkpt>
      <trkpt lat="47.11672" lon="-1.14145">
        <ele>87</ele>
        <time>2023-11-05T19:59:50Z</time>
      </trkpt>
      <trkpt lat="47.11646" lon="-1.14316">
        <ele>90</ele>
        <time>2023-11-05T20:02:29Z</time>
      </trkpt>
      <trkpt lat="47.11635" lon="-1.14352">
        <ele>90</ele>
        <time>2023-11-05T20:03:05Z</time>
      </trkpt>
      <trkpt lat="47.11633" lon="-1.14375">
        <ele>91</ele>
        <time>2023-11-05T20:03:26Z</time>
      </trkpt>
      <trkpt lat="47.11627" lon="-1.14401">
        <ele>92</ele>
        <time>2023-11-05T20:03:51Z</time>
      </trkpt>
      <trkpt lat="47.11616" lon="-1.14432">
        <ele>92</ele>
        <time>2023-11-05T20:04:23Z</time>
      </trkpt>
      <trkpt lat="47.11607" lon="-1.1447">
        <ele>92</ele>
        <time>2023-11-05T20:04:59Z</time>
      </trkpt>
      <trkpt lat="47.11586" lon="-1.14659">
        <ele>93</ele>
        <time>2023-11-05T20:07:53Z</time>
      </trkpt>
      <trkpt lat="47.1158" lon="-1.14747">
        <ele>92</ele>
        <time>2023-11-05T20:09:13Z</time>
      </trkpt>
      <trkpt lat="47.11572" lon="-1.14821">
        <ele>92</ele>
        <time>2023-11-05T20:10:22Z</time>
      </trkpt>
      <trkpt lat="47.1157" lon="-1.14869">
        <ele>92</ele>
        <time>2023-11-05T20:11:05Z</time>
      </trkpt>
      <trkpt lat="47.11564" lon="-1.1491">
        <ele>92</ele>
        <time>2023-11-05T20:11:43Z</time>
      </trkpt>
      <trkpt lat="47.11547" lon="-1.15107">
        <ele>91</ele>
        <time>2023-11-05T20:14:44Z</time>
      </trkpt>
      <trkpt lat="47.11541" lon="-1.15109">
        <ele>91</ele>
        <time>2023-11-05T20:14:52Z</time>
      </trkpt>
      <trkpt lat="47.11515" lon="-1.15098">
        <ele>91</ele>
        <time>2023-11-05T20:15:28Z</time>
      </trkpt>
      <trkpt lat="47.11489" lon="-1.15078">
        <ele>91</ele>
        <time>2023-11-05T20:16:07Z</time>
      </trkpt>
      <trkpt lat="47.11435" lon="-1.15027">
        <ele>93</ele>
        <time>2023-11-05T20:17:33Z</time>
      </trkpt>
      <trkpt lat="47.11408" lon="-1.15011">
        <ele>93</ele>
        <time>2023-11-05T20:18:12Z</time>
      </trkpt>
      <trkpt lat="47.11332" lon="-1.14976">
        <ele>93</ele>
        <time>2023-11-05T20:19:58Z</time>
      </trkpt>
      <trkpt lat="47.11303" lon="-1.1497">
        <ele>92</ele>
        <time>2023-11-05T20:20:37Z</time>
      </trkpt>
      <trkpt lat="47.1128" lon="-1.1498">
        <ele>92</ele>
        <time>2023-11-05T20:21:09Z</time>
      </trkpt>
      <trkpt lat="47.11257" lon="-1.15014">
        <ele>91</ele>
        <time>2023-11-05T20:21:52Z</time>
      </trkpt>
      <trkpt lat="47.11229" lon="-1.15033">
        <ele>91</ele>
        <time>2023-11-05T20:22:34Z</time>
      </trkpt>
      <trkpt lat="47.11095" lon="-1.15082">
        <ele>91</ele>
        <time>2023-11-05T20:25:38Z</time>
      </trkpt>
      <trkpt lat="47.11058" lon="-1.15088">
        <ele>90</ele>
        <time>2023-11-05T20:26:28Z</time>
      </trkpt>
      <trkpt lat="47.11053" lon="-1.15078">
        <ele>90</ele>
        <time>2023-11-05T20:26:39Z</time>
      </trkpt>
      <trkpt lat="47.11043" lon="-1.1501">
        <ele>90</ele>
        <time>2023-11-05T20:27:42Z</time>
      </trkpt>
      <trkpt lat="47.11025" lon="-1.14978">
        <ele>89</ele>
        <time>2023-11-05T20:28:20Z</time>
      </trkpt>
      <trkpt lat="47.10981" lon="-1.14928">
        <ele>89</ele>
        <time>2023-11-05T20:29:34Z</time>
      </trkpt>
      <trkpt lat="47.10953" lon="-1.14919">
        <ele>89</ele>
        <time>2023-11-05T20:30:12Z</time>
      </trkpt>
      <trkpt lat="47.10919" lon="-1.1492">
        <ele>89</ele>
        <time>2023-11-05T20:30:58Z</time>
      </trkpt>
      <trkpt lat="47.10889" lon="-1.14912">
        <ele>89</ele>
        <time>2023-11-05T20:31:38Z</time>
      </trkpt>
      <trkpt lat="47.1086" lon="-1.14898">
        <ele>88</ele>
        <time>2023-11-05T20:32:19Z</time>
      </trkpt>
      <trkpt lat="47.10809" lon="-1.14854">
        <ele>89</ele>
        <time>2023-11-05T20:33:38Z</time>
      </trkpt>
      <trkpt lat="47.10777" lon="-1.14839">
        <ele>89</ele>
        <time>2023-11-05T20:34:23Z</time>
      </trkpt>
      <trkpt lat="47.10748" lon="-1.14821">
        <ele>89</ele>
        <time>2023-11-05T20:35:05Z</time>
      </trkpt>
      <trkpt lat="47.1072" lon="-1.14799">
        <ele>88</ele>
        <time>2023-11-05T20:35:47Z</time>
      </trkpt>
      <trkpt lat="47.10668" lon="-1.14745">
        <ele>88</ele>
        <time>2023-11-05T20:37:12Z</time>
      </trkpt>
      <trkpt lat="47.10647" lon="-1.14727">
        <ele>87</ele>
        <time>2023-11-05T20:37:45Z</time>
      </trkpt>
      <trkpt lat="47.10631" lon="-1.14704">
        <ele>87</ele>
        <time>2023-11-05T20:38:14Z</time>
      </trkpt>
      <trkpt lat="47.1062" lon="-1.14674">
        <ele>86</ele>
        <time>2023-11-05T20:38:45Z</time>
      </trkpt>
      <trkpt lat="47.10611" lon="-1.14635">
        <ele>86</ele>
        <time>2023-11-05T20:39:23Z</time>
      </trkpt>
      <trkpt lat="47.10597" lon="-1.14552">
        <ele>87</ele>
        <time>2023-11-05T20:40:40Z</time>
      </trkpt>
      <trkpt lat="47.10556" lon="-1.14409">
        <ele>85</ele>
        <time>2023-11-05T20:43:01Z</time>
      </trkpt>
      <trkpt lat="47.10538" lon="-1.14331">
        <ele>84</ele>
        <time>2023-11-05T20:44:16Z</time>
      </trkpt>
      <trkpt lat="47.10518" lon="-1.14295">
        <ele>83</ele>
        <time>2023-11-05T20:44:58Z</time>
      </trkpt>
      <trkpt lat="47.10497" lon="-1.14265">
        <ele>83</ele>
        <time>2023-11-05T20:45:38Z</time>
      </trkpt>
      <trkpt lat="47.10472" lon="-1.14244">
        <ele>82</ele>
        <time>2023-11-05T20:46:16Z</time>
      </trkpt>
      <trkpt lat="47.1039" lon="-1.14204">
        <ele>81</ele>
        <time>2023-11-05T20:48:11Z</time>
      </trkpt>
      <trkpt lat="47.10361" lon="-1.14184">
        <ele>80</ele>
        <time>2023-11-05T20:48:54Z</time>
      </trkpt>
      <trkpt lat="47.10332" lon="-1.1417">
        <ele>80</ele>
        <time>2023-11-05T20:49:35Z</time>
      </trkpt>
      <trkpt lat="47.10308" lon="-1.14155">
        <ele>80</ele>
        <time>2023-11-05T20:50:10Z</time>
      </trkpt>
      <trkpt lat="47.10251" lon="-1.14126">
        <ele>79</ele>
        <time>2023-11-05T20:51:30Z</time>
      </trkpt>
      <trkpt lat="47.10217" lon="-1.14115">
        <ele>79</ele>
        <time>2023-11-05T20:52:17Z</time>
      </trkpt>
      <trkpt lat="47.10187" lon="-1.14095">
        <ele>79</ele>
        <time>2023-11-05T20:53:00Z</time>
      </trkpt>
      <trkpt lat="47.10166" lon="-1.14071">
        <ele>79</ele>
        <time>2023-11-05T20:53:36Z</time>
      </trkpt>
      <trkpt lat="47.10154" lon="-1.13997">
        <ele>78</ele>
        <time>2023-11-05T20:54:45Z</time>
      </trkpt>
      <trkpt lat="47.10124" lon="-1.13939">
        <ele>75</ele>
        <time>2023-11-05T20:55:51Z</time>
      </trkpt>
      <trkpt lat="47.10075" lon="-1.1386">
        <ele>73</ele>
        <time>2023-11-05T20:57:28Z</time>
      </trkpt>
      <trkpt lat="47.10043" lon="-1.13816">
        <ele>71</ele>
        <time>2023-11-05T20:58:27Z</time>
      </trkpt>
      <trkpt lat="47.10025" lon="-1.13783">
        <ele>70</ele>
        <time>2023-11-05T20:59:05Z</time>
      </trkpt>
      <trkpt lat="47.09991" lon="-1.13691">
        <ele>67</ele>
        <time>2023-11-05T21:00:40Z</time>
      </trkpt>
      <trkpt lat="47.09986" lon="-1.13654">
        <ele>66</ele>
        <time>2023-11-05T21:01:15Z</time>
      </trkpt>
      <trkpt lat="47.09989" lon="-1.13581">
        <ele>63</ele>
        <time>2023-11-05T21:02:21Z</time>
      </trkpt>
      <trkpt lat="47.10011" lon="-1.13522">
        <ele>60</ele>
        <time>2023-11-05T21:03:22Z</time>
      </trkpt>
      <trkpt lat="47.1002" lon="-1.13479">
        <ele>57</ele>
        <time>2023-11-05T21:04:03Z</time>
      </trkpt>
      <trkpt lat="47.10021" lon="-1.13454">
        <ele>56</ele>
        <time>2023-11-05T21:04:26Z</time>
      </trkpt>
      <trkpt lat="47.10018" lon="-1.1343">
        <ele>55</ele>
        <time>2023-11-05T21:04:48Z</time>
      </trkpt>
      <trkpt lat="47.10023" lon="-1.13401">
        <ele>54</ele>
        <time>2023-11-05T21:05:15Z</time>
      </trkpt>
      <trkpt lat="47.10048" lon="-1.13325">
        <ele>50</ele>
        <time>2023-11-05T21:06:32Z</time>
      </trkpt>
      <trkpt lat="47.10068" lon="-1.1328">
        <ele>46</ele>
        <time>2023-11-05T21:07:21Z</time>
      </trkpt>
      <trkpt lat="47.10085" lon="-1.13216">
        <ele>44</ele>
        <time>2023-11-05T21:08:23Z</time>
      </trkpt>
      <trkpt lat="47.10083" lon="-1.13161">
        <ele>43</ele>
        <time>2023-11-05T21:09:13Z</time>
      </trkpt>
      <trkpt lat="47.10097" lon="-1.13071">
        <ele>51</ele>
        <time>2023-11-05T21:10:37Z</time>
      </trkpt>
      <trkpt lat="47.10099" lon="-1.13043">
        <ele>53</ele>
        <time>2023-11-05T21:11:02Z</time>
      </trkpt>
      <trkpt lat="47.10097" lon="-1.1302">
        <ele>55</ele>
        <time>2023-11-05T21:11:24Z</time>
      </trkpt>
      <trkpt lat="47.10085" lon="-1.13013">
        <ele>56</ele>
        <time>2023-11-05T21:11:41Z</time>
      </trkpt>
      <trkpt lat="47.10067" lon="-1.1301">
        <ele>55</ele>
        <time>2023-11-05T21:12:05Z</time>
      </trkpt>
      <trkpt lat="47.10089" lon="-1.13002">
        <ele>57</ele>
        <time>2023-11-05T21:12:35Z</time>
      </trkpt>
      <trkpt lat="47.10087" lon="-1.12975">
        <ele>58</ele>
        <time>2023-11-05T21:13:00Z</time>
      </trkpt>
      <trkpt lat="47.10092" lon="-1.12943">
        <ele>59</ele>
        <time>2023-11-05T21:13:30Z</time>
      </trkpt>
      <trkpt lat="47.10089" lon="-1.12929">
        <ele>59</ele>
        <time>2023-11-05T21:13:43Z</time>
      </trkpt>
      <trkpt lat="47.10033" lon="-1.12833">
        <ele>58</ele>
        <time>2023-11-05T21:15:38Z</time>
      </trkpt>
      <trkpt lat="47.10013" lon="-1.12825">
        <ele>57</ele>
        <time>2023-11-05T21:16:06Z</time>
      </trkpt>
      <trkpt lat="47.09992" lon="-1.12811">
        <ele>55</ele>
        <time>2023-11-05T21:16:36Z</time>
      </trkpt>
      <trkpt lat="47.09975" lon="-1.12803">
        <ele>54</ele>
        <time>2023-11-05T21:17:00Z</time>
      </trkpt>
      <trkpt lat="47.09959" lon="-1.12782">
        <ele>52</ele>
        <time>2023-11-05T21:17:29Z</time>
      </trkpt>
      <trkpt lat="47.09977" lon="-1.12747">
        <ele>55</ele>
        <time>2023-11-05T21:18:09Z</time>
      </trkpt>
      <trkpt lat="47.09988" lon="-1.12709">
        <ele>55</ele>
        <time>2023-11-05T21:18:46Z</time>
      </trkpt>
      <trkpt lat="47.09985" lon="-1.12704">
        <ele>54</ele>
        <time>2023-11-05T21:18:52Z</time>
      </trkpt>
      <trkpt lat="47.09968" lon="-1.12693">
        <ele>52</ele>
        <time>2023-11-05T21:19:17Z</time>
      </trkpt>
      <trkpt lat="47.09951" lon="-1.12669">
        <ele>50</ele>
        <time>2023-11-05T21:19:48Z</time>
      </trkpt>
      <trkpt lat="47.09933" lon="-1.12661">
        <ele>48</ele>
        <time>2023-11-05T21:20:14Z</time>
      </trkpt>
      <trkpt lat="47.09926" lon="-1.12666">
        <ele>47</ele>
        <time>2023-11-05T21:20:24Z</time>
      </trkpt>
      <trkpt lat="47.09915" lon="-1.12685">
        <ele>46</ele>
        <time>2023-11-05T21:20:47Z</time>
      </trkpt>
      <trkpt lat="47.09865" lon="-1.12738">
        <ele>43</ele>
        <time>2023-11-05T21:22:09Z</time>
      </trkpt>
      <trkpt lat="47.09864" lon="-1.12752">
        <ele>43</ele>
        <time>2023-11-05T21:22:22Z</time>
      </trkpt>
      <trkpt lat="47.09849" lon="-1.12751">
        <ele>42</ele>
        <time>2023-11-05T21:22:42Z</time>
      </trkpt>
      <trkpt lat="47.09847" lon="-1.1276">
        <ele>42</ele>
        <time>2023-11-05T21:22:50Z</time>
      </trkpt>
      <trkpt lat="47.09851" lon="-1.1276">
        <ele>42</ele>
        <time>2023-11-05T21:22:56Z</time>
      </trkpt>
      <trkpt lat="47.09854" lon="-1.12756">
        <ele>42</ele>
        <time>2023-11-05T21:23:01Z</time>
      </trkpt>
      <trkpt lat="47.09853" lon="-1.12766">
        <ele>42</ele>
        <time>2023-11-05T21:23:10Z</time>
      </trkpt>
      <trkpt lat="47.09854" lon="-1.12753">
        <ele>42</ele>
        <time>2023-11-05T21:23:22Z</time>
      </trkpt>
    </trkseg>
  </trk>
</gpx>